M I D A S
Marine Information and Data Acquisition System
Tripno 977 of the Zeeleeuw from 2005-10-24 06:41:04 to 2005-10-24 14:23:06
Back to CruiseResearch ActivitiesStationsMapUnderway DataData graphs

EquipmentUnitsComment
TimeDGPSUTC
LatitudeDGPSDM.mWGS84
LongitudeDGPSDM.mWGS84
TemperatureSBE03/SBE38deg celciusITS90
ConductivitySBE21S/mITS90
SalinitySBE21 Practical Salinity Units
ChlorophylAChelsea fluorimeterg/lCalibrated in Aceton
Missing or incorrect values are displayed as -999
Sea surface data collected by the RV Zeeleeuw from 2005-10-24 06:42:02 to 2005-10-24 14:33:23
                                                                                    Next 1000 lines
Time Latitude Longitude Temperature Conductivity Salinity ChlorophylA
2005-10-24 06:42:11 51°13.601 2°56.094 -999 0.07928 0.375952 -1.3206
2005-10-24 06:42:17 51°13.602 2°56.091 -999 0.07928 0.375957 -1.354309
2005-10-24 06:42:22 51°13.603 2°56.087 -999 0.07928 0.375957 -1.354309
2005-10-24 06:42:27 51°13.604 2°56.082 -999 0.07928 0.375962 -1.354309
2005-10-24 06:42:33 51°13.605 2°56.077 -999 0.07928 0.375962 -1.354309
2005-10-24 06:42:37 51°13.607 2°56.072 -999 0.07928 0.375968 -1.354309
2005-10-24 06:42:43 51°13.608 2°56.066 -999 0.07928 0.375973 -1.354309
2005-10-24 06:42:48 51°13.61 2°56.06 -999 0.07928 0.375979 -1.3206
2005-10-24 06:42:53 51°13.612 2°56.054 -999 0.07928 0.375984 -1.354309
2005-10-24 06:42:58 51°13.613 2°56.048 -999 0.07928 0.37599 -1.354309
2005-10-24 06:43:02 51°13.614 2°56.043 -999 0.07928 0.37599 -1.354309
2005-10-24 06:43:07 51°13.616 2°56.036 -999 0.079177 0.375492 -1.354309
2005-10-24 06:43:13 51°13.618 2°56.028 -999 0.07928 0.376006 -1.3206
2005-10-24 06:43:17 51°13.62 2°56.022 -999 0.07928 0.376012 -1.354309
2005-10-24 06:43:23 51°13.622 2°56.013 -999 0.07928 0.376017 -1.354309
2005-10-24 06:43:27 51°13.623 2°56.007 -999 0.07928 0.376022 -1.3206
2005-10-24 06:43:33 51°13.626 2°55.998 -999 0.07928 0.376022 -1.3206
2005-10-24 06:43:38 51°13.628 2°55.99 -999 0.079177 0.375525 -1.354309
2005-10-24 06:43:43 51°13.63 2°55.982 -999 0.07928 0.376028 -1.354309
2005-10-24 06:43:47 51°13.632 2°55.976 -999 0.079177 0.375531 -1.354309
2005-10-24 06:43:53 51°13.635 2°55.966 -999 0.079177 0.375536 -1.354309
2005-10-24 06:43:58 51°13.637 2°55.957 -999 0.079177 0.375541 -1.354309
2005-10-24 06:44:03 51°13.64 2°55.948 -999 0.079177 0.375541 -1.354309
2005-10-24 06:44:07 51°13.643 2°55.941 -999 0.079177 0.375547 -1.3206
2005-10-24 06:44:13 51°13.647 2°55.93 -999 0.079177 0.375552 -1.354309
2005-10-24 06:44:18 51°13.65 2°55.921 -999 0.079177 0.375558 -1.354309
2005-10-24 06:44:23 51°13.653 2°55.911 -999 0.079177 0.375569 -1.354309
2005-10-24 06:44:28 51°13.656 2°55.902 -999 0.079177 0.375574 -1.354309
2005-10-24 06:44:33 51°13.659 2°55.893 -999 0.079177 0.375574 -1.354309
2005-10-24 06:44:37 51°13.662 2°55.885 -999 0.079177 0.37558 -1.354309
2005-10-24 06:44:43 51°13.665 2°55.874 -999 0.079177 0.375585 -1.354309
2005-10-24 06:44:47 51°13.667 2°55.867 -999 0.079177 0.375591 -1.354309
2005-10-24 06:44:53 51°13.67 2°55.856 -999 0.079177 0.375596 -1.354309
2005-10-24 06:44:57 51°13.672 2°55.849 -999 0.079177 0.375601 -1.3206
2005-10-24 06:45:03 51°13.674 2°55.839 -999 0.079177 0.375601 -1.3206
2005-10-24 06:45:07 51°13.676 2°55.832 -999 0.079177 0.375607 -1.354309
2005-10-24 06:45:13 51°13.678 2°55.821 -999 0.079177 0.375612 -1.354309
2005-10-24 06:45:17 51°13.679 2°55.815 -999 0.079177 0.375618 -1.354309
2005-10-24 06:45:23 51°13.68 2°55.804 -999 0.079177 0.375618 -1.354309
2005-10-24 06:45:28 51°13.681 2°55.796 -999 0.079177 0.375623 -1.354309
2005-10-24 06:45:33 51°13.682 2°55.788 -999 0.079177 0.375623 -1.354309
2005-10-24 06:45:38 51°13.682 2°55.78 -999 0.079177 0.375629 -1.354309
2005-10-24 06:45:43 51°13.682 2°55.772 -999 0.079177 0.375634 -1.3206
2005-10-24 06:45:47 51°13.683 2°55.767 -999 0.079177 0.37564 -1.3206
2005-10-24 06:45:53 51°13.683 2°55.761 -999 0.079177 0.375645 -1.354309
2005-10-24 06:45:57 51°13.683 2°55.758 -999 0.07928 0.375832 -1.3206
2005-10-24 06:46:02 51°13.683 2°55.755 -999 0.07928 0.375832 -1.3206
2005-10-24 06:46:07 51°13.683 2°55.753 -999 0.102019 0.488155 -1.084634
2005-10-24 06:46:12 51°13.683 2°55.752 -999 0.199463 0.984516 -1.219471
2005-10-24 06:46:17 51°13.684 2°55.752 -999 0.234348 1.178615 -1.017215
2005-10-24 06:46:22 51°13.684 2°55.753 -999 1.869989 11.377927 -1.050924
2005-10-24 06:46:27 51°13.686 2°55.753 -999 2.981209 20.269328 -1.118343
2005-10-24 06:46:32 51°13.687 2°55.755 -999 2.981209 20.269328 -1.118343
2005-10-24 06:46:37 51°13.689 2°55.756 -999 3.526576 25.149326 -1.3206
2005-10-24 06:46:42 51°13.692 2°55.758 -999 3.664636 27.018373 -1.388018
2005-10-24 06:46:47 51°13.694 2°55.759 -999 3.803981 28.846157 -1.421728
2005-10-24 06:46:52 51°13.697 2°55.761 -999 3.879113 30.038895 -1.421728
2005-10-24 06:46:57 51°13.7 2°55.762 -999 3.961096 31.119995 -1.421728
2005-10-24 06:47:02 51°13.703 2°55.763 -999 3.961096 31.119995 -1.421728
2005-10-24 06:47:07 51°13.707 2°55.763 -999 3.931147 31.106006 -1.421728
2005-10-24 06:47:12 51°13.71 2°55.763 -999 3.929492 31.264294 -1.421728
2005-10-24 06:47:17 51°13.715 2°55.761 -999 3.883895 30.966198 -1.421728
2005-10-24 06:47:22 51°13.719 2°55.76 -999 3.903586 31.244721 -1.421728
2005-10-24 06:47:27 51°13.724 2°55.757 -999 3.895711 31.244368 -1.421728
2005-10-24 06:47:32 51°13.729 2°55.752 -999 3.895711 31.244368 -1.421728
2005-10-24 06:47:37 51°13.734 2°55.746 -999 3.885556 31.206468 -1.421728
2005-10-24 06:47:42 51°13.739 2°55.738 -999 3.865454 31.07812 -1.421728
2005-10-24 06:47:47 51°13.746 2°55.73 -999 3.865143 31.109664 -1.421728
2005-10-24 06:47:52 51°13.752 2°55.722 -999 3.856543 31.057033 -1.421728
2005-10-24 06:47:57 51°13.759 2°55.712 -999 3.852502 31.042597 -1.421728
2005-10-24 06:48:02 51°13.767 2°55.702 -999 3.852502 31.042597 -1.421728
2005-10-24 06:48:07 51°13.775 2°55.692 -999 3.830432 30.867082 -1.421728
2005-10-24 06:48:12 51°13.783 2°55.681 -999 3.809295 30.697244 -1.421728
2005-10-24 06:48:17 51°13.792 2°55.671 -999 3.817688 30.789556 -1.421728
2005-10-24 06:48:22 51°13.801 2°55.66 -999 3.79997 30.639783 -1.421728
2005-10-24 06:48:27 51°13.811 2°55.65 -999 3.793443 30.593646 -1.421728
2005-10-24 06:48:31 51°13.819 2°55.642 -999 3.793443 30.593646 -1.421728
2005-10-24 06:48:37 51°13.831 2°55.63 -999 3.770443 30.408837 -1.421728
2005-10-24 06:48:42 51°13.842 2°55.62 -999 3.759151 30.315355 -1.421728
2005-10-24 06:48:47 51°13.854 2°55.612 -999 3.739778 30.143652 -1.421728
2005-10-24 06:48:52 51°13.865 2°55.603 -999 3.699688 29.78412 -1.421728
2005-10-24 06:48:57 51°13.876 2°55.594 -999 3.717195 29.938848 -1.421728
2005-10-24 06:49:02 51°13.889 2°55.586 -999 3.717195 29.938848 -1.421728
2005-10-24 06:49:07 51°13.901 2°55.578 -999 3.722478 29.994469 -1.421728
2005-10-24 06:49:11 51°13.91 2°55.571 -999 3.727761 30.052059 -1.421728
2005-10-24 06:49:17 51°13.925 2°55.56 -999 3.741022 30.18058 -1.421728
2005-10-24 06:49:22 51°13.937 2°55.552 -999 3.756561 30.325173 -1.421728
2005-10-24 06:49:27 51°13.95 2°55.544 -999 3.767439 30.43585 -1.421728
2005-10-24 06:49:32 51°13.962 2°55.535 -999 3.767439 30.43585 -1.421728
2005-10-24 06:49:37 51°13.974 2°55.526 -999 3.77894 30.550952 -1.421728
2005-10-24 06:49:42 51°13.986 2°55.517 -999 3.79303 30.684905 -1.421728
2005-10-24 06:49:47 51°13.999 2°55.509 -999 3.805049 30.802979 -1.421728
2005-10-24 06:49:51 51°14.009 2°55.501 -999 3.819658 30.941883 -1.421728
2005-10-24 06:49:57 51°14.024 2°55.491 -999 3.818208 30.938093 -1.421728
2005-10-24 06:50:02 51°14.036 2°55.483 -999 3.818208 30.938093 -1.421728
2005-10-24 06:50:07 51°14.049 2°55.474 -999 3.837895 31.118327 -1.421728
2005-10-24 06:50:12 51°14.061 2°55.465 -999 3.845666 31.190473 -1.421728
2005-10-24 06:50:17 51°14.074 2°55.457 -999 3.844423 31.181255 -1.421728
2005-10-24 06:50:22 51°14.087 2°55.447 -999 3.848153 31.21962 -1.421728
2005-10-24 06:50:27 51°14.1 2°55.438 -999 3.835408 31.105894 -1.421728
2005-10-24 06:50:32 51°14.113 2°55.429 -999 3.835408 31.105894 -1.421728
2005-10-24 06:50:37 51°14.126 2°55.419 -999 3.835512 31.109499 -1.421728
2005-10-24 06:50:42 51°14.139 2°55.409 -999 3.833336 31.091193 -1.421728
2005-10-24 06:50:47 51°14.153 2°55.399 -999 3.832611 31.089983 -1.421728
2005-10-24 06:50:51 51°14.163 2°55.39 -999 3.830331 31.073406 -1.421728
2005-10-24 06:50:57 51°14.179 2°55.375 -999 3.828881 31.064311 -1.421728
2005-10-24 06:51:02 51°14.191 2°55.362 -999 3.828881 31.064311 -1.421728
2005-10-24 06:51:07 51°14.204 2°55.347 -999 3.824529 31.029021 -1.421728
2005-10-24 06:51:12 51°14.216 2°55.332 -999 3.816551 30.958998 -1.421728
2005-10-24 06:51:17 51°14.228 2°55.315 -999 3.816343 30.961117 -1.421728
2005-10-24 06:51:22 51°14.239 2°55.298 -999 3.803703 30.853667 -1.421728
2005-10-24 06:51:27 51°14.25 2°55.279 -999 3.807537 30.892246 -1.421728
2005-10-24 06:51:32 51°14.261 2°55.261 -999 3.807537 30.892246 -1.421728
2005-10-24 06:51:37 51°14.272 2°55.241 -999 3.803081 30.854022 -1.421728
2005-10-24 06:51:42 51°14.282 2°55.221 -999 3.795 30.787708 -1.421728
2005-10-24 06:51:47 51°14.292 2°55.201 -999 3.801217 30.849783 -1.421728
2005-10-24 06:51:52 51°14.303 2°55.181 -999 3.790441 30.757146 -1.421728
2005-10-24 06:51:57 51°14.313 2°55.161 -999 3.789405 30.752422 -1.421728
2005-10-24 06:52:02 51°14.323 2°55.14 -999 3.789405 30.752422 -1.421728
2005-10-24 06:52:07 51°14.334 2°55.12 -999 3.781946 30.689713 -1.421728
2005-10-24 06:52:12 51°14.344 2°55.1 -999 3.776144 30.638013 -1.421728
2005-10-24 06:52:17 51°14.355 2°55.081 -999 3.764437 30.536338 -1.421728
2005-10-24 06:52:22 51°14.367 2°55.062 -999 3.762469 30.520552 -1.421728
2005-10-24 06:52:27 51°14.379 2°55.044 -999 3.766095 30.554577 -1.421728
2005-10-24 06:52:32 51°14.391 2°55.027 -999 3.766095 30.554577 -1.421728
2005-10-24 06:52:37 51°14.404 2°55.01 -999 3.76568 30.550181 -1.421728
2005-10-24 06:52:42 51°14.415 2°54.992 -999 3.772207 30.607098 -1.421728
2005-10-24 06:52:47 51°14.427 2°54.972 -999 3.773554 30.617276 -1.421728
2005-10-24 06:52:52 51°14.437 2°54.953 -999 3.792514 30.783791 -1.421728
2005-10-24 06:52:57 51°14.447 2°54.932 -999 3.815308 30.987036 -1.421728
2005-10-24 06:53:02 51°14.457 2°54.912 -999 3.815308 30.987036 -1.421728
2005-10-24 06:53:07 51°14.466 2°54.89 -999 3.846807 31.27255 -1.421728
2005-10-24 06:53:12 51°14.475 2°54.868 -999 3.866081 31.453114 -1.421728
2005-10-24 06:53:17 51°14.484 2°54.846 -999 3.89147 31.687973 -1.421728
2005-10-24 06:53:22 51°14.493 2°54.823 -999 3.915616 31.906372 -1.421728
2005-10-24 06:53:27 51°14.501 2°54.799 -999 3.930126 32.040188 -1.421728
2005-10-24 06:53:31 51°14.508 2°54.781 -999 3.930126 32.040188 -1.421728
2005-10-24 06:53:37 51°14.518 2°54.752 -999 3.961011 32.322306 -1.421728
2005-10-24 06:53:42 51°14.526 2°54.729 -999 3.978114 32.482805 -1.421728
2005-10-24 06:53:47 51°14.534 2°54.705 -999 3.993558 32.626251 -1.421728
2005-10-24 06:53:51 51°14.54 2°54.686 -999 4.001021 32.693544 -1.421728
2005-10-24 06:53:57 51°14.55 2°54.657 -999 4.014185 32.812827 -1.421728
2005-10-24 06:54:02 51°14.558 2°54.632 -999 4.014185 32.812827 -1.421728
2005-10-24 06:54:07 51°14.565 2°54.608 -999 4.024759 32.909244 -1.421728
2005-10-24 06:54:12 51°14.573 2°54.583 -999 4.027661 32.937139 -1.421728
2005-10-24 06:54:17 51°14.581 2°54.559 -999 4.034607 33.001928 -1.421728
2005-10-24 06:54:22 51°14.588 2°54.533 -999 4.038753 33.041194 -1.421728
2005-10-24 06:54:27 51°14.596 2°54.508 -999 4.041345 33.068412 -1.421728
2005-10-24 06:54:32 51°14.604 2°54.483 -999 4.041345 33.068412 -1.421728
2005-10-24 06:54:37 51°14.611 2°54.458 -999 4.035333 33.021357 -1.421728
2005-10-24 06:54:42 51°14.62 2°54.433 -999 4.044248 33.106328 -1.421728
2005-10-24 06:54:47 51°14.627 2°54.408 -999 4.043833 33.107537 -1.421728
2005-10-24 06:54:52 51°14.635 2°54.383 -999 4.058243 33.238489 -1.421728
2005-10-24 06:54:57 51°14.642 2°54.357 -999 4.068921 33.331076 -1.421728
2005-10-24 06:55:02 51°14.649 2°54.331 -999 4.068921 33.331076 -1.421728
2005-10-24 06:55:07 51°14.657 2°54.305 -999 4.083954 33.459175 -1.421728
2005-10-24 06:55:11 51°14.662 2°54.284 -999 4.100956 33.603863 -1.421728
2005-10-24 06:55:17 51°14.67 2°54.253 -999 4.111013 33.6821 -1.421728
2005-10-24 06:55:22 51°14.677 2°54.227 -999 4.124803 33.794462 -1.421728
2005-10-24 06:55:27 51°14.684 2°54.201 -999 4.132268 33.851119 -1.421728
2005-10-24 06:55:32 51°14.691 2°54.175 -999 4.132268 33.851119 -1.421728
2005-10-24 06:55:37 51°14.698 2°54.149 -999 4.143777 33.94768 -1.421728
2005-10-24 06:55:42 51°14.706 2°54.123 -999 4.146266 33.963146 -1.421728
2005-10-24 06:55:47 51°14.713 2°54.098 -999 4.153213 34.01721 -1.421728
2005-10-24 06:55:52 51°14.72 2°54.072 -999 4.158812 34.056732 -1.421728
2005-10-24 06:55:57 51°14.727 2°54.046 -999 4.167004 34.116289 -1.421728
2005-10-24 06:56:02 51°14.734 2°54.02 -999 4.167004 34.116289 -1.421728
2005-10-24 06:56:07 51°14.742 2°53.994 -999 4.168766 34.116288 -1.455437
2005-10-24 06:56:11 51°14.747 2°53.974 -999 4.174054 34.145585 -1.421728
2005-10-24 06:56:17 51°14.755 2°53.942 -999 4.181831 34.198338 -1.421728
2005-10-24 06:56:22 51°14.761 2°53.916 -999 4.185668 34.217257 -1.455437
2005-10-24 06:56:27 51°14.767 2°53.889 -999 4.191475 34.25416 -1.421728
2005-10-24 06:56:32 51°14.772 2°53.863 -999 4.191475 34.25416 -1.421728
2005-10-24 06:56:37 51°14.778 2°53.836 -999 4.186808 34.196887 -1.421728
2005-10-24 06:56:42 51°14.783 2°53.809 -999 4.196867 34.272574 -1.421728
2005-10-24 06:56:47 51°14.789 2°53.783 -999 4.2034 34.314582 -1.421728
2005-10-24 06:56:52 51°14.795 2°53.756 -999 4.202985 34.294657 -1.421728
2005-10-24 06:56:57 51°14.8 2°53.729 -999 4.208585 34.33032 -1.455437
2005-10-24 06:57:02 51°14.806 2°53.702 -999 4.208585 34.33032 -1.455437
2005-10-24 06:57:07 51°14.812 2°53.676 -999 4.209414 34.323948 -1.421728
2005-10-24 06:57:12 51°14.817 2°53.649 -999 4.215429 34.367766 -1.421728
2005-10-24 06:57:17 51°14.823 2°53.622 -999 4.218125 34.381329 -1.421728
2005-10-24 06:57:22 51°14.828 2°53.595 -999 4.222377 34.409792 -1.421728
2005-10-24 06:57:27 51°14.833 2°53.568 -999 4.214806 34.330575 -1.421728
2005-10-24 06:57:32 51°14.838 2°53.54 -999 4.214806 34.330575 -1.421728
2005-10-24 06:57:37 51°14.843 2°53.513 -999 4.218539 34.353578 -1.421728
2005-10-24 06:57:42 51°14.848 2°53.486 -999 4.217606 34.334832 -1.421728
2005-10-24 06:57:47 51°14.853 2°53.458 -999 4.229428 34.432906 -1.421728
2005-10-24 06:57:51 51°14.857 2°53.436 -999 4.229428 34.424104 -1.421728
2005-10-24 06:57:57 51°14.863 2°53.404 -999 4.233888 34.454412 -1.421728
2005-10-24 06:58:02 51°14.868 2°53.376 -999 4.233888 34.454412 -1.421728
2005-10-24 06:58:07 51°14.873 2°53.349 -999 4.235962 34.465211 -1.421728
2005-10-24 06:58:11 51°14.877 2°53.327 -999 4.237517 34.472024 -1.421728
2005-10-24 06:58:17 51°14.882 2°53.294 -999 4.239384 34.482399 -1.421728
2005-10-24 06:58:22 51°14.887 2°53.267 -999 4.235754 34.444257 -1.421728
2005-10-24 06:58:27 51°14.892 2°53.239 -999 4.239073 34.470033 -1.421728
2005-10-24 06:58:32 51°14.896 2°53.212 -999 4.239073 34.470033 -1.421728
2005-10-24 06:58:37 51°14.901 2°53.184 -999 4.240628 34.479776 -1.421728
2005-10-24 06:58:41 51°14.904 2°53.162 -999 4.239176 34.46511 -1.421728
2005-10-24 06:58:47 51°14.91 2°53.129 -999 4.242184 34.491719 -1.421728
2005-10-24 06:58:52 51°14.914 2°53.102 -999 4.24011 34.472129 -1.421728
2005-10-24 06:58:57 51°14.918 2°53.074 -999 4.235858 34.435676 -1.421728
2005-10-24 06:59:02 51°14.922 2°53.046 -999 4.235858 34.435676 -1.421728
2005-10-24 06:59:07 51°14.925 2°53.018 -999 4.240628 34.48051 -1.421728
2005-10-24 06:59:12 51°14.928 2°52.991 -999 4.242288 34.500734 -1.421728
2005-10-24 06:59:17 51°14.931 2°52.962 -999 4.23731 34.461335 -1.421728
2005-10-24 06:59:22 51°14.935 2°52.934 -999 4.234717 34.446555 -1.421728
2005-10-24 06:59:27 51°14.937 2°52.906 -999 4.232747 34.441098 -1.421728
2005-10-24 06:59:32 51°14.941 2°52.878 -999 4.232747 34.441098 -1.421728
2005-10-24 06:59:37 51°14.943 2°52.85 -999 4.233369 34.461437 -1.421728
2005-10-24 06:59:42 51°14.947 2°52.822 -999 4.228806 34.430911 -1.421728
2005-10-24 06:59:47 51°14.95 2°52.794 -999 4.220095 34.369939 -1.421728
2005-10-24 06:59:52 51°14.953 2°52.766 -999 4.212836 34.32142 -1.421728
2005-10-24 06:59:57 51°14.956 2°52.738 -999 4.205162 34.263973 -1.421728
2005-10-24 07:00:02 51°14.958 2°52.71 -999 4.205162 34.263973 -1.421728
2005-10-24 07:00:07 51°14.961 2°52.681 -999 4.20651 34.288694 -1.421728
2005-10-24 07:00:12 51°14.963 2°52.653 -999 4.213873 34.363863 -1.421728
2005-10-24 07:00:17 51°14.964 2°52.625 -999 4.203399 34.280116 -1.421728
2005-10-24 07:00:22 51°14.965 2°52.596 -999 4.207651 34.326946 -1.421728
2005-10-24 07:00:27 51°14.966 2°52.568 -999 4.207755 34.335231 -1.421728
2005-10-24 07:00:32 51°14.965 2°52.54 -999 4.207755 34.335231 -1.421728
2005-10-24 07:00:37 51°14.964 2°52.512 -999 4.207755 34.34037 -1.421728
2005-10-24 07:00:42 51°14.963 2°52.485 -999 4.201429 34.289268 -1.421728
2005-10-24 07:00:47 51°14.962 2°52.457 -999 4.203089 34.308808 -1.421728
2005-10-24 07:00:52 51°14.961 2°52.428 -999 4.207548 34.353171 -1.421728
2005-10-24 07:00:57 51°14.96 2°52.4 -999 4.197074 34.259067 -1.421728
2005-10-24 07:01:02 51°14.96 2°52.372 -999 4.197074 34.259067 -1.421728
2005-10-24 07:01:07 51°14.96 2°52.344 -999 4.207548 34.353906 -1.421728
2005-10-24 07:01:12 51°14.96 2°52.315 -999 4.203296 34.31437 -1.421728
2005-10-24 07:01:17 51°14.96 2°52.287 -999 4.202259 34.30344 -1.421728
2005-10-24 07:01:22 51°14.96 2°52.259 -999 4.203296 34.3107 -1.421728
2005-10-24 07:01:27 51°14.961 2°52.231 -999 4.2034 34.310912 -1.421728
2005-10-24 07:01:32 51°14.961 2°52.202 -999 4.2034 34.310912 -1.421728
2005-10-24 07:01:37 51°14.961 2°52.174 -999 4.205474 34.328368 -1.421728
2005-10-24 07:01:42 51°14.961 2°52.146 -999 4.191267 34.198045 -1.421728
2005-10-24 07:01:47 51°14.961 2°52.117 -999 4.20817 34.349296 -1.421728
2005-10-24 07:01:52 51°14.961 2°52.089 -999 4.206096 34.326702 -1.421728
2005-10-24 07:01:57 51°14.961 2°52.061 -999 4.209 34.348785 -1.421728
2005-10-24 07:02:02 51°14.962 2°52.032 -999 4.209 34.348785 -1.421728
2005-10-24 07:02:07 51°14.961 2°52.005 -999 4.206718 34.32357 -1.421728
2005-10-24 07:02:12 51°14.962 2°51.977 -999 4.211177 34.359836 -1.421728
2005-10-24 07:02:17 51°14.962 2°51.948 -999 4.215118 34.389166 -1.421728
2005-10-24 07:02:22 51°14.962 2°51.92 -999 4.215844 34.388437 -1.421728
2005-10-24 07:02:27 51°14.962 2°51.892 -999 4.214081 34.365019 -1.421728
2005-10-24 07:02:32 51°14.963 2°51.864 -999 4.214081 34.365019 -1.421728
2005-10-24 07:02:37 51°14.963 2°51.836 -999 4.207962 34.301923 -1.421728
2005-10-24 07:02:42 51°14.963 2°51.807 -999 4.199666 34.218305 -1.421728
2005-10-24 07:02:47 51°14.963 2°51.779 -999 4.200703 34.220444 -1.421728
2005-10-24 07:02:52 51°14.964 2°51.751 -999 4.220614 34.391529 -1.421728
2005-10-24 07:02:57 51°14.964 2°51.723 -999 4.22611 34.432053 -1.421728
2005-10-24 07:03:02 51°14.964 2°51.695 -999 4.22611 34.432053 -1.421728
2005-10-24 07:03:07 51°14.964 2°51.666 -999 4.227873 34.437829 -1.421728
2005-10-24 07:03:11 51°14.964 2°51.644 -999 4.231088 34.455353 -1.421728
2005-10-24 07:03:17 51°14.965 2°51.61 -999 4.232747 34.460178 -1.421728
2005-10-24 07:03:22 51°14.965 2°51.582 -999 4.236169 34.480312 -1.421728
2005-10-24 07:03:27 51°14.966 2°51.554 -999 4.238347 34.486912 -1.421728
2005-10-24 07:03:32 51°14.966 2°51.526 -999 4.238347 34.486912 -1.421728
2005-10-24 07:03:37 51°14.966 2°51.498 -999 4.240836 34.497072 -1.421728
2005-10-24 07:03:42 51°14.967 2°51.47 -999 4.243947 34.512887 -1.421728
2005-10-24 07:03:47 51°14.967 2°51.442 -999 4.247058 34.527226 -1.421728
2005-10-24 07:03:52 51°14.967 2°51.414 -999 4.24934 34.536219 -1.421728
2005-10-24 07:03:57 51°14.966 2°51.386 -999 4.25131 34.540914 -1.421728
2005-10-24 07:04:02 51°14.964 2°51.358 -999 4.25131 34.540914 -1.421728
2005-10-24 07:04:07 51°14.962 2°51.33 -999 4.254836 34.560472 -1.421728
2005-10-24 07:04:12 51°14.96 2°51.303 -999 4.256703 34.567152 -1.421728
2005-10-24 07:04:17 51°14.958 2°51.275 -999 4.258466 34.574357 -1.421728
2005-10-24 07:04:22 51°14.956 2°51.247 -999 4.260644 34.586793 -1.421728
2005-10-24 07:04:27 51°14.953 2°51.22 -999 4.262615 34.599544 -1.421728
2005-10-24 07:04:32 51°14.951 2°51.192 -999 4.262615 34.599544 -1.421728
2005-10-24 07:04:37 51°14.947 2°51.165 -999 4.263755 34.60623 -1.421728
2005-10-24 07:04:42 51°14.944 2°51.138 -999 4.263652 34.602353 -1.388018
2005-10-24 07:04:47 51°14.941 2°51.11 -999 4.264066 34.603916 -1.421728
2005-10-24 07:04:52 51°14.938 2°51.083 -999 4.265726 34.616776 -1.388018
2005-10-24 07:04:57 51°14.935 2°51.055 -999 4.265518 34.614159 -1.421728
2005-10-24 07:05:02 51°14.931 2°51.028 -999 4.265518 34.614159 -1.421728
2005-10-24 07:05:07 51°14.929 2°51.001 -999 4.26583 34.615515 -1.421728
2005-10-24 07:05:12 51°14.925 2°50.973 -999 4.266141 34.617604 -1.421728
2005-10-24 07:05:17 51°14.921 2°50.946 -999 4.266452 34.61896 -1.421728
2005-10-24 07:05:22 51°14.918 2°50.919 -999 4.261992 34.577757 -1.421728
2005-10-24 07:05:27 51°14.914 2°50.892 -999 4.267385 34.625963 -1.421728
2005-10-24 07:05:32 51°14.909 2°50.865 -999 4.267385 34.625963 -1.421728
2005-10-24 07:05:37 51°14.905 2°50.838 -999 4.267282 34.623553 -1.388018
2005-10-24 07:05:42 51°14.901 2°50.811 -999 4.266452 34.614556 -1.421728
2005-10-24 07:05:47 51°14.896 2°50.785 -999 4.265 34.600647 -1.421728
2005-10-24 07:05:52 51°14.892 2°50.758 -999 4.2678 34.625323 -1.388018
2005-10-24 07:05:57 51°14.887 2°50.731 -999 4.268215 34.629087 -1.421728
2005-10-24 07:06:02 51°14.883 2°50.704 -999 4.268215 34.629087 -1.421728
2005-10-24 07:06:07 51°14.878 2°50.678 -999 4.268422 34.630236 -1.388018
2005-10-24 07:06:12 51°14.874 2°50.651 -999 4.26863 34.631384 -1.388018
2005-10-24 07:06:17 51°14.868 2°50.625 -999 4.268734 34.631591 -1.421728
2005-10-24 07:06:22 51°14.864 2°50.597 -999 4.268733 34.630122 -1.388018
2005-10-24 07:06:27 51°14.859 2°50.571 -999 4.268837 34.628861 -1.388018
2005-10-24 07:06:32 51°14.854 2°50.544 -999 4.268837 34.628861 -1.388018
2005-10-24 07:06:37 51°14.849 2°50.518 -999 4.269045 34.630009 -1.421728
2005-10-24 07:06:42 51°14.844 2°50.491 -999 4.269356 34.631364 -1.388018
2005-10-24 07:06:47 51°14.839 2°50.464 -999 4.269667 34.631985 -1.388018
2005-10-24 07:06:51 51°14.836 2°50.443 -999 4.269874 34.632399 -1.421728
2005-10-24 07:06:57 51°14.83 2°50.41 -999 4.270185 34.633019 -1.421728
2005-10-24 07:07:02 51°14.826 2°50.384 -999 4.270185 34.633019 -1.421728
2005-10-24 07:07:07 51°14.821 2°50.357 -999 4.270289 34.632493 -1.421728
2005-10-24 07:07:11 51°14.818 2°50.335 -999 4.270496 34.632173 -1.421728
2005-10-24 07:07:17 51°14.813 2°50.302 -999 4.270704 34.631853 -1.421728
2005-10-24 07:07:22 51°14.809 2°50.275 -999 4.270911 34.631533 -1.421728
2005-10-24 07:07:27 51°14.805 2°50.248 -999 4.271119 34.630479 -1.421728
2005-10-24 07:07:31 51°14.802 2°50.226 -999 4.271119 34.630479 -1.421728
2005-10-24 07:07:37 51°14.796 2°50.194 -999 4.27143 34.6311 -1.388018
2005-10-24 07:07:42 51°14.792 2°50.167 -999 4.271637 34.632248 -1.388018
2005-10-24 07:07:47 51°14.788 2°50.14 -999 4.271637 34.630047 -1.421728
2005-10-24 07:07:52 51°14.784 2°50.113 -999 4.271845 34.629728 -1.421728
2005-10-24 07:07:57 51°14.78 2°50.086 -999 4.272156 34.631816 -1.421728
2005-10-24 07:08:02 51°14.776 2°50.059 -999 4.272156 34.631816 -1.421728
2005-10-24 07:08:07 51°14.772 2°50.032 -999 4.272363 34.632963 -1.421728
2005-10-24 07:08:12 51°14.768 2°50.005 -999 4.272467 34.632437 -1.388018
2005-10-24 07:08:17 51°14.763 2°49.978 -999 4.272571 34.63191 -1.421728
2005-10-24 07:08:22 51°14.759 2°49.951 -999 4.272674 34.631384 -1.388018
2005-10-24 07:08:27 51°14.755 2°49.924 -999 4.272882 34.632531 -1.421728
2005-10-24 07:08:32 51°14.751 2°49.897 -999 4.272882 34.632531 -1.421728
2005-10-24 07:08:37 51°14.747 2°49.87 -999 4.272882 34.631798 -1.421728
2005-10-24 07:08:42 51°14.743 2°49.842 -999 4.273089 34.632945 -1.421728
2005-10-24 07:08:47 51°14.738 2°49.816 -999 4.273297 34.634092 -1.421728
2005-10-24 07:08:51 51°14.735 2°49.794 -999 4.273297 34.633359 -1.421728
2005-10-24 07:08:57 51°14.73 2°49.762 -999 4.2734 34.632833 -1.421728
2005-10-24 07:09:02 51°14.726 2°49.735 -999 4.2734 34.632833 -1.421728
2005-10-24 07:09:07 51°14.721 2°49.708 -999 4.273504 34.63304 -1.388018
2005-10-24 07:09:11 51°14.718 2°49.686 -999 4.273504 34.632306 -1.388018
2005-10-24 07:09:17 51°14.712 2°49.654 -999 4.273711 34.63272 -1.421728
2005-10-24 07:09:22 51°14.707 2°49.628 -999 4.273815 34.632927 -1.421728
2005-10-24 07:09:27 51°14.702 2°49.602 -999 4.273919 34.633134 -1.388018
2005-10-24 07:09:32 51°14.697 2°49.575 -999 4.273919 34.633134 -1.388018
2005-10-24 07:09:37 51°14.691 2°49.549 -999 4.274022 34.632608 -1.388018
2005-10-24 07:09:42 51°14.685 2°49.523 -999 4.274126 34.632815 -1.421728
2005-10-24 07:09:47 51°14.68 2°49.496 -999 4.27423 34.633022 -1.388018
2005-10-24 07:09:52 51°14.674 2°49.471 -999 4.27423 34.631556 -1.421728
2005-10-24 07:09:57 51°14.669 2°49.445 -999 4.274437 34.632703 -1.388018
2005-10-24 07:10:02 51°14.662 2°49.419 -999 4.274437 34.632703 -1.388018
2005-10-24 07:10:07 51°14.658 2°49.392 -999 4.274645 34.632384 -1.421728
2005-10-24 07:10:12 51°14.651 2°49.367 -999 4.274852 34.632798 -1.421728
2005-10-24 07:10:17 51°14.646 2°49.34 -999 4.274956 34.631539 -1.388018
2005-10-24 07:10:22 51°14.64 2°49.314 -999 4.275163 34.631221 -1.421728
2005-10-24 07:10:27 51°14.634 2°49.288 -999 4.275371 34.630169 -1.388018
2005-10-24 07:10:32 51°14.628 2°49.262 -999 4.275371 34.630169 -1.388018
2005-10-24 07:10:37 51°14.623 2°49.236 -999 4.275267 34.625567 -1.421728
2005-10-24 07:10:42 51°14.617 2°49.21 -999 4.275682 34.626395 -1.421728
2005-10-24 07:10:47 51°14.611 2°49.184 -999 4.275889 34.626077 -1.388018
2005-10-24 07:10:52 51°14.605 2°49.158 -999 4.276096 34.625759 -1.421728
2005-10-24 07:10:57 51°14.6 2°49.132 -999 4.276408 34.625648 -1.421728
2005-10-24 07:11:02 51°14.594 2°49.105 -999 4.276408 34.625648 -1.421728
2005-10-24 07:11:07 51°14.589 2°49.079 -999 4.276615 34.624598 -1.421728
2005-10-24 07:11:12 51°14.583 2°49.053 -999 4.276719 34.621877 -1.388018
2005-10-24 07:11:17 51°14.577 2°49.027 -999 4.276822 34.620621 -1.421728
2005-10-24 07:11:22 51°14.572 2°49.001 -999 4.277237 34.622182 -1.421728
2005-10-24 07:11:27 51°14.566 2°48.975 -999 4.277652 34.62301 -1.421728
2005-10-24 07:11:31 51°14.562 2°48.954 -999 4.277652 34.62301 -1.421728
2005-10-24 07:11:37 51°14.555 2°48.924 -999 4.277859 34.621961 -1.421728
2005-10-24 07:11:42 51°14.548 2°48.897 -999 4.27817 34.62112 -1.388018
2005-10-24 07:11:47 51°14.543 2°48.871 -999 4.278274 34.619132 -1.421728
2005-10-24 07:11:51 51°14.538 2°48.851 -999 4.278274 34.616206 -1.421728
2005-10-24 07:11:57 51°14.531 2°48.82 -999 4.278689 34.617036 -1.421728
2005-10-24 07:12:02 51°14.525 2°48.794 -999 4.278689 34.617036 -1.421728
2005-10-24 07:12:07 51°14.519 2°48.768 -999 4.279 34.616926 -1.421728
2005-10-24 07:12:12 51°14.513 2°48.742 -999 4.279311 34.616817 -1.388018
2005-10-24 07:12:17 51°14.507 2°48.716 -999 4.27288 34.55645 -1.388018
2005-10-24 07:12:22 51°14.501 2°48.69 -999 4.274851 34.570626 -1.388018
2005-10-24 07:12:27 51°14.495 2°48.664 -999 4.276511 34.582715 -1.388018
2005-10-24 07:12:32 51°14.489 2°48.639 -999 4.276511 34.582715 -1.388018
2005-10-24 07:12:37 51°14.483 2°48.612 -999 4.275681 34.57229 -1.388018
2005-10-24 07:12:42 51°14.477 2°48.587 -999 4.277963 34.590006 -1.421728
2005-10-24 07:12:47 51°14.471 2°48.561 -999 4.276199 34.571142 -1.388018
2005-10-24 07:12:52 51°14.465 2°48.535 -999 4.275369 34.560721 -1.388018
2005-10-24 07:12:57 51°14.459 2°48.509 -999 4.275473 34.55947 -1.421728
2005-10-24 07:13:02 51°14.453 2°48.483 -999 4.275473 34.55947 -1.421728
2005-10-24 07:13:07 51°14.447 2°48.457 -999 4.27734 34.573431 -1.388018
2005-10-24 07:13:12 51°14.441 2°48.431 -999 4.27734 34.569783 -1.421728
2005-10-24 07:13:17 51°14.435 2°48.405 -999 4.276199 34.557283 -1.421728
2005-10-24 07:13:22 51°14.43 2°48.379 -999 4.2818 34.605722 -1.388018
2005-10-24 07:13:27 51°14.424 2°48.353 -999 4.278688 34.575406 -1.388018
2005-10-24 07:13:32 51°14.418 2°48.327 -999 4.278688 34.575406 -1.388018
2005-10-24 07:13:37 51°14.412 2°48.302 -999 4.282215 34.605092 -1.388018
2005-10-24 07:13:42 51°14.406 2°48.275 -999 4.282215 34.602902 -1.388018
2005-10-24 07:13:47 51°14.4 2°48.25 -999 4.278896 34.570718 -1.388018
2005-10-24 07:13:52 51°14.394 2°48.224 -999 4.281592 34.593629 -1.388018
2005-10-24 07:13:57 51°14.388 2°48.198 -999 4.28263 34.600814 -1.421728
2005-10-24 07:14:02 51°14.382 2°48.172 -999 4.28263 34.600814 -1.421728
2005-10-24 07:14:07 51°14.376 2°48.146 -999 4.282733 34.599562 -1.421728
2005-10-24 07:14:11 51°14.371 2°48.126 -999 4.282837 34.598311 -1.388018
2005-10-24 07:14:17 51°14.364 2°48.095 -999 4.282941 34.59706 -1.388018
2005-10-24 07:14:22 51°14.358 2°48.069 -999 4.283044 34.595079 -1.388018
2005-10-24 07:14:27 51°14.352 2°48.042 -999 4.283148 34.593828 -1.388018
2005-10-24 07:14:31 51°14.347 2°48.022 -999 4.283148 34.593828 -1.388018
2005-10-24 07:14:37 51°14.34 2°47.991 -999 4.283252 34.592578 -1.421728
2005-10-24 07:14:42 51°14.334 2°47.964 -999 4.283459 34.592264 -1.388018
2005-10-24 07:14:47 51°14.328 2°47.938 -999 4.283563 34.590285 -1.388018
2005-10-24 07:14:52 51°14.322 2°47.912 -999 4.283666 34.588306 -1.388018
2005-10-24 07:14:57 51°14.317 2°47.886 -999 4.283874 34.587264 -1.388018
2005-10-24 07:15:02 51°14.311 2°47.86 -999 4.283874 34.587264 -1.388018
2005-10-24 07:15:07 51°14.305 2°47.834 -999 4.283977 34.586015 -1.388018
2005-10-24 07:15:11 51°14.301 2°47.813 -999 4.284185 34.585702 -1.421728
2005-10-24 07:15:17 51°14.294 2°47.783 -999 4.284392 34.584661 -1.388018
2005-10-24 07:15:22 51°14.288 2°47.757 -999 4.284496 34.583411 -1.388018
2005-10-24 07:15:27 51°14.282 2°47.73 -999 4.2846 34.582163 -1.388018
2005-10-24 07:15:32 51°14.276 2°47.704 -999 4.2846 34.582163 -1.388018
2005-10-24 07:15:37 51°14.271 2°47.678 -999 4.284703 34.581642 -1.388018
2005-10-24 07:15:42 51°14.265 2°47.652 -999 4.284911 34.58133 -1.388018
2005-10-24 07:15:47 51°14.259 2°47.626 -999 4.285014 34.580082 -1.388018
2005-10-24 07:15:52 51°14.253 2°47.6 -999 4.279206 34.52475 -1.388018
2005-10-24 07:15:57 51°14.248 2°47.573 -999 4.281695 34.545759 -1.388018
2005-10-24 07:16:02 51°14.244 2°47.547 -999 4.281695 34.545759 -1.388018
2005-10-24 07:16:07 51°14.239 2°47.52 -999 4.285429 34.578001 -1.388018
2005-10-24 07:16:11 51°14.237 2°47.498 -999 4.285533 34.576754 -1.388018
2005-10-24 07:16:17 51°14.232 2°47.465 -999 4.284185 34.562402 -1.388018
2005-10-24 07:16:22 51°14.229 2°47.437 -999 4.281695 34.53776 -1.388018
2005-10-24 07:16:27 51°14.226 2°47.41 -999 4.284496 34.560845 -1.421728
2005-10-24 07:16:32 51°14.224 2°47.382 -999 4.284496 34.560845 -1.421728
2005-10-24 07:16:37 51°14.223 2°47.354 -999 4.286051 34.573428 -1.388018
2005-10-24 07:16:42 51°14.222 2°47.326 -999 4.285637 34.567502 -1.388018
2005-10-24 07:16:47 51°14.221 2°47.299 -999 4.283147 34.54359 -1.388018
2005-10-24 07:16:52 51°14.221 2°47.271 -999 4.284288 34.552428 -1.388018
2005-10-24 07:16:57 51°14.22 2°47.243 -999 4.284807 34.554925 -1.388018
2005-10-24 07:17:02 51°14.22 2°47.215 -999 4.284807 34.554925 -1.388018
2005-10-24 07:17:07 51°14.219 2°47.187 -999 4.283666 34.54318 -1.388018
2005-10-24 07:17:12 51°14.219 2°47.159 -999 4.284807 34.552744 -1.388018
2005-10-24 07:17:17 51°14.219 2°47.131 -999 4.285325 34.555968 -1.388018
2005-10-24 07:17:22 51°14.218 2°47.103 -999 4.285429 34.556176 -1.388018
2005-10-24 07:17:27 51°14.218 2°47.075 -999 4.286674 34.566675 -1.388018
2005-10-24 07:17:32 51°14.217 2°47.047 -999 4.286674 34.566675 -1.388018
2005-10-24 07:17:37 51°14.217 2°47.019 -999 4.285636 34.555866 -1.388018
2005-10-24 07:17:42 51°14.217 2°46.991 -999 4.286051 34.558881 -1.388018
2005-10-24 07:17:47 51°14.216 2°46.963 -999 4.285947 34.556492 -1.388018
2005-10-24 07:17:52 51°14.216 2°46.935 -999 4.285844 34.553376 -1.388018
2005-10-24 07:17:57 51°14.215 2°46.907 -999 4.286777 34.56034 -1.388018
2005-10-24 07:18:02 51°14.216 2°46.879 -999 4.286777 34.56034 -1.388018
2005-10-24 07:18:07 51°14.214 2°46.851 -999 4.286777 34.558159 -1.388018
2005-10-24 07:18:12 51°14.214 2°46.823 -999 4.286155 34.551095 -1.388018
2005-10-24 07:18:17 51°14.213 2°46.795 -999 4.286466 34.55172 -1.388018
2005-10-24 07:18:22 51°14.212 2°46.767 -999 4.287607 34.560554 -1.388018
2005-10-24 07:18:27 51°14.212 2°46.739 -999 4.28657 34.549023 -1.388018
2005-10-24 07:18:32 51°14.211 2°46.711 -999 4.28657 34.549023 -1.388018
2005-10-24 07:18:37 51°14.211 2°46.683 -999 4.286051 34.542895 -1.388018
2005-10-24 07:18:42 51°14.211 2°46.655 -999 4.288022 34.558481 -1.388018
2005-10-24 07:18:47 51°14.21 2°46.627 -999 4.286155 34.538747 -1.388018
2005-10-24 07:18:52 51°14.21 2°46.599 -999 4.288022 34.554122 -1.388018
2005-10-24 07:18:57 51°14.209 2°46.57 -999 4.287918 34.551735 -1.388018
2005-10-24 07:19:02 51°14.208 2°46.542 -999 4.287918 34.551735 -1.388018
2005-10-24 07:19:07 51°14.208 2°46.515 -999 4.286881 34.540209 -1.388018
2005-10-24 07:19:12 51°14.208 2°46.486 -999 4.288851 34.556517 -1.388018
2005-10-24 07:19:17 51°14.208 2°46.458 -999 4.288229 34.550182 -1.388018
2005-10-24 07:19:22 51°14.207 2°46.43 -999 4.289681 34.561816 -1.388018
2005-10-24 07:19:27 51°14.207 2°46.402 -999 4.288125 34.546343 -1.388018
2005-10-24 07:19:32 51°14.206 2°46.374 -999 4.288125 34.546343 -1.388018
2005-10-24 07:19:37 51°14.206 2°46.346 -999 4.289577 34.557977 -1.388018
2005-10-24 07:19:42 51°14.205 2°46.318 -999 4.288955 34.550917 -1.388018
2005-10-24 07:19:47 51°14.205 2°46.29 -999 4.289162 34.551334 -1.388018
2005-10-24 07:19:52 51°14.204 2°46.262 -999 4.288333 34.542406 -1.388018
2005-10-24 07:19:57 51°14.204 2°46.234 -999 4.289992 34.556632 -1.388018
2005-10-24 07:20:02 51°14.204 2°46.206 -999 4.289992 34.556632 -1.388018
2005-10-24 07:20:07 51°14.204 2°46.178 -999 4.289473 34.551234 -1.388018
2005-10-24 07:20:12 51°14.203 2°46.15 -999 4.290407 34.558919 -1.388018
2005-10-24 07:20:17 51°14.202 2°46.122 -999 4.286362 34.522475 -1.388018
2005-10-24 07:20:22 51°14.202 2°46.094 -999 4.290303 34.557984 -1.388018
2005-10-24 07:20:27 51°14.201 2°46.066 -999 4.290407 34.558193 -1.388018
2005-10-24 07:20:32 51°14.201 2°46.038 -999 4.290407 34.558193 -1.388018
2005-10-24 07:20:37 51°14.2 2°46.01 -999 4.289577 34.549265 -1.388018
2005-10-24 07:20:42 51°14.2 2°45.982 -999 4.286362 34.520299 -1.388018
2005-10-24 07:20:47 51°14.199 2°45.954 -999 4.289162 34.544802 -1.388018
2005-10-24 07:20:52 51°14.199 2°45.926 -999 4.290407 34.555289 -1.388018
2005-10-24 07:20:57 51°14.199 2°45.899 -999 4.289992 34.5501 -1.388018
2005-10-24 07:21:02 51°14.199 2°45.871 -999 4.289992 34.5501 -1.388018
2005-10-24 07:21:07 51°14.198 2°45.843 -999 4.289785 34.546054 -1.388018
2005-10-24 07:21:11 51°14.198 2°45.821 -999 4.285117 34.503289 -1.388018
2005-10-24 07:21:17 51°14.197 2°45.787 -999 4.289681 34.543669 -1.388018
2005-10-24 07:21:22 51°14.197 2°45.759 -999 4.289784 34.543877 -1.388018
2005-10-24 07:21:27 51°14.196 2°45.731 -999 4.289992 34.545746 -1.388018
2005-10-24 07:21:31 51°14.196 2°45.709 -999 4.289992 34.545746 -1.388018
2005-10-24 07:21:37 51°14.196 2°45.676 -999 4.289162 34.537547 -1.388018
2005-10-24 07:21:42 51°14.195 2°45.648 -999 4.290822 34.551769 -1.388018
2005-10-24 07:21:47 51°14.195 2°45.62 -999 4.290822 34.551043 -1.388018
2005-10-24 07:21:52 51°14.194 2°45.592 -999 4.290199 34.544712 -1.388018
2005-10-24 07:21:57 51°14.194 2°45.564 -999 4.28854 34.528316 -1.388018
2005-10-24 07:22:02 51°14.193 2°45.536 -999 4.28854 34.528316 -1.388018
2005-10-24 07:22:07 51°14.193 2°45.508 -999 4.287088 34.515239 -1.388018
2005-10-24 07:22:12 51°14.193 2°45.48 -999 4.287502 34.518975 -1.388018
2005-10-24 07:22:17 51°14.192 2°45.453 -999 4.286776 34.512437 -1.388018
2005-10-24 07:22:22 51°14.191 2°45.425 -999 4.290303 34.54347 -1.388018
2005-10-24 07:22:27 51°14.191 2°45.397 -999 4.290822 34.548141 -1.388018
2005-10-24 07:22:32 51°14.19 2°45.369 -999 4.290822 34.548141 -1.388018
2005-10-24 07:22:37 51°14.19 2°45.341 -999 4.289681 34.537866 -1.388018
2005-10-24 07:22:42 51°14.189 2°45.313 -999 4.290925 34.549075 -1.388018
2005-10-24 07:22:47 51°14.189 2°45.285 -999 4.290925 34.549801 -1.388018
2005-10-24 07:22:52 51°14.189 2°45.257 -999 4.290822 34.548866 -1.388018
2005-10-24 07:22:57 51°14.188 2°45.229 -999 4.29051 34.546789 -1.388018
2005-10-24 07:23:02 51°14.188 2°45.201 -999 4.29051 34.546789 -1.388018
2005-10-24 07:23:07 51°14.187 2°45.173 -999 4.290096 34.543053 -1.388018
2005-10-24 07:23:11 51°14.187 2°45.151 -999 4.289992 34.542844 -1.388018
2005-10-24 07:23:17 51°14.186 2°45.118 -999 4.287399 34.520216 -1.388018
2005-10-24 07:23:22 51°14.185 2°45.09 -999 4.290199 34.546889 -1.388018
2005-10-24 07:23:27 51°14.185 2°45.062 -999 4.290718 34.552286 -1.388018
2005-10-24 07:23:32 51°14.184 2°45.034 -999 4.290718 34.552286 -1.388018
2005-10-24 07:23:37 51°14.184 2°45.006 -999 4.290096 34.548131 -1.388018
2005-10-24 07:23:42 51°14.183 2°44.979 -999 4.285636 34.508685 -1.388018
2005-10-24 07:23:47 51°14.182 2°44.951 -999 4.290303 34.552177 -1.388018
2005-10-24 07:23:52 51°14.182 2°44.923 -999 4.286984 34.523004 -1.388018
2005-10-24 07:23:57 51°14.181 2°44.895 -999 4.287606 34.52861 -1.388018
2005-10-24 07:24:02 51°14.181 2°44.868 -999 4.287606 34.52861 -1.388018
2005-10-24 07:24:07 51°14.181 2°44.84 -999 4.289266 34.54501 -1.388018
2005-10-24 07:24:12 51°14.18 2°44.813 -999 4.289785 34.551134 -1.388018
2005-10-24 07:24:17 51°14.18 2°44.785 -999 4.288747 34.542515 -1.388018
2005-10-24 07:24:22 51°14.178 2°44.757 -999 4.288644 34.543032 -1.388018
2005-10-24 07:24:27 51°14.178 2°44.73 -999 4.286777 34.526938 -1.388018
2005-10-24 07:24:32 51°14.178 2°44.702 -999 4.286777 34.526938 -1.388018
2005-10-24 07:24:37 51°14.178 2°44.674 -999 4.288851 34.547804 -1.388018
2005-10-24 07:24:42 51°14.179 2°44.646 -999 4.289888 34.557876 -1.388018
2005-10-24 07:24:47 51°14.18 2°44.618 -999 4.289266 34.552994 -1.388018
2005-10-24 07:24:52 51°14.181 2°44.59 -999 4.28937 34.554655 -1.388018
2005-10-24 07:24:57 51°14.182 2°44.561 -999 4.28854 34.547904 -1.388018
2005-10-24 07:25:02 51°14.184 2°44.533 -999 4.28854 34.547904 -1.388018
2005-10-24 07:25:07 51°14.187 2°44.504 -999 4.288125 34.544166 -1.388018
2005-10-24 07:25:12 51°14.189 2°44.476 -999 4.28937 34.556107 -1.388018
2005-10-24 07:25:17 51°14.193 2°44.447 -999 4.288644 34.549565 -1.388018
2005-10-24 07:25:22 51°14.195 2°44.419 -999 4.289474 34.556316 -1.388018
2005-10-24 07:25:27 51°14.199 2°44.39 -999 4.28688 34.531499 -1.388018
2005-10-24 07:25:32 51°14.202 2°44.362 -999 4.28688 34.531499 -1.388018
2005-10-24 07:25:37 51°14.205 2°44.333 -999 4.288851 34.547804 -1.388018
2005-10-24 07:25:42 51°14.208 2°44.305 -999 4.283976 34.503885 -1.388018
2005-10-24 07:25:47 51°14.211 2°44.277 -999 4.287399 34.535446 -1.388018
2005-10-24 07:25:52 51°14.214 2°44.248 -999 4.288955 34.549465 -1.388018
2005-10-24 07:25:57 51°14.217 2°44.22 -999 4.287192 34.532852 -1.388018
2005-10-24 07:26:02 51°14.219 2°44.192 -999 4.287192 34.532852 -1.388018
2005-10-24 07:26:07 51°14.222 2°44.164 -999 4.28771 34.536799 -1.388018
2005-10-24 07:26:12 51°14.224 2°44.136 -999 4.285532 34.517175 -1.388018
2005-10-24 07:26:17 51°14.227 2°44.107 -999 4.288851 34.547078 -1.388018
2005-10-24 07:26:22 51°14.229 2°44.079 -999 4.288747 34.545418 -1.388018
2005-10-24 07:26:27 51°14.231 2°44.051 -999 4.288436 34.542615 -1.388018
2005-10-24 07:26:32 51°14.234 2°44.023 -999 4.288436 34.542615 -1.388018
2005-10-24 07:26:37 51°14.236 2°43.995 -999 4.288644 34.543032 -1.388018
2005-10-24 07:26:42 51°14.238 2°43.967 -999 4.288436 34.540438 -1.388018
2005-10-24 07:26:47 51°14.24 2°43.939 -999 4.289059 34.546044 -1.388018
2005-10-24 07:26:52 51°14.243 2°43.911 -999 4.286258 34.52009 -1.388018
2005-10-24 07:26:57 51°14.244 2°43.883 -999 4.286984 34.52518 -1.388018
2005-10-24 07:27:02 51°14.247 2°43.855 -999 4.286984 34.52518 -1.388018
2005-10-24 07:27:07 51°14.249 2°43.827 -999 4.28408 34.498296 -1.388018
2005-10-24 07:27:11 51°14.251 2°43.804 -999 4.286673 34.520927 -1.388018
2005-10-24 07:27:17 51°14.253 2°43.771 -999 4.285947 34.512212 -1.388018
2005-10-24 07:27:22 51°14.256 2°43.743 -999 4.289577 34.544185 -1.388018
2005-10-24 07:27:27 51°14.258 2°43.715 -999 4.288332 34.532249 -1.388018
2005-10-24 07:27:32 51°14.26 2°43.687 -999 4.288332 34.532249 -1.388018
2005-10-24 07:27:37 51°14.263 2°43.659 -999 4.288021 34.528721 -1.388018
2005-10-24 07:27:42 51°14.265 2°43.631 -999 4.28937 34.54014 -1.388018
2005-10-24 07:27:47 51°14.267 2°43.603 -999 4.290303 34.548549 -1.388018
2005-10-24 07:27:52 51°14.269 2°43.575 -999 4.290303 34.547823 -1.388018
2005-10-24 07:27:57 51°14.271 2°43.547 -999 4.287814 34.525402 -1.388018
2005-10-24 07:28:02 51°14.273 2°43.519 -999 4.287814 34.525402 -1.388018
2005-10-24 07:28:07 51°14.276 2°43.491 -999 4.290511 34.549692 -1.388018
2005-10-24 07:28:12 51°14.278 2°43.463 -999 4.289784 34.542426 -1.388018
2005-10-24 07:28:17 51°14.28 2°43.435 -999 4.28937 34.53869 -1.388018
2005-10-24 07:28:22 51°14.283 2°43.407 -999 4.289784 34.543152 -1.388018
2005-10-24 07:28:27 51°14.285 2°43.379 -999 4.290718 34.552286 -1.421728
2005-10-24 07:28:32 51°14.287 2°43.351 -999 4.290718 34.552286 -1.421728
2005-10-24 07:28:37 51°14.289 2°43.323 -999 4.290822 34.55322 -1.388018
2005-10-24 07:28:42 51°14.292 2°43.295 -999 4.287814 34.526852 -1.388018
2005-10-24 07:28:47 51°14.294 2°43.267 -999 4.289266 34.541382 -1.388018
2005-10-24 07:28:52 51°14.296 2°43.239 -999 4.285221 34.506398 -1.388018
2005-10-24 07:28:57 51°14.298 2°43.211 -999 4.291133 34.559652 -1.388018
2005-10-24 07:29:02 51°14.3 2°43.183 -999 4.291133 34.559652 -1.388018
2005-10-24 07:29:07 51°14.303 2°43.155 -999 4.291133 34.560378 -1.388018
2005-10-24 07:29:12 51°14.305 2°43.127 -999 4.289888 34.549891 -1.388018
2005-10-24 07:29:17 51°14.307 2°43.099 -999 4.290718 34.558818 -1.421728
2005-10-24 07:29:22 51°14.31 2°43.071 -999 4.288229 34.537843 -1.388018
2005-10-24 07:29:27 51°14.312 2°43.043 -999 4.290407 34.558919 -1.388018
2005-10-24 07:29:32 51°14.314 2°43.015 -999 4.290407 34.558919 -1.388018
2005-10-24 07:29:37 51°14.316 2°42.987 -999 4.289162 34.54843 -1.388018
2005-10-24 07:29:42 51°14.318 2°42.959 -999 4.291237 34.567121 -1.388018
2005-10-24 07:29:47 51°14.321 2°42.931 -999 4.286984 34.530257 -1.388018
2005-10-24 07:29:51 51°14.322 2°42.909 -999 4.286673 34.528905 -1.388018
2005-10-24 07:29:57 51°14.325 2°42.875 -999 4.288021 34.543231 -1.388018
2005-10-24 07:30:02 51°14.327 2°42.847 -999 4.288021 34.543231 -1.388018
2005-10-24 07:30:07 51°14.33 2°42.819 -999 4.287295 34.537415 -1.388018
2005-10-24 07:30:12 51°14.332 2°42.791 -999 4.290303 34.565246 -1.421728
2005-10-24 07:30:17 51°14.335 2°42.763 -999 4.289992 34.563894 -1.388018
2005-10-24 07:30:22 51°14.337 2°42.735 -999 4.289266 34.557351 -1.421728
2005-10-24 07:30:27 51°14.339 2°42.707 -999 4.28491 34.518821 -1.388018
2005-10-24 07:30:32 51°14.341 2°42.679 -999 4.28491 34.518821 -1.388018
2005-10-24 07:30:37 51°14.344 2°42.651 -999 4.288851 34.555065 -1.388018
2005-10-24 07:30:42 51°14.346 2°42.623 -999 4.290718 34.571164 -1.421728
2005-10-24 07:30:47 51°14.348 2°42.595 -999 4.290822 34.572099 -1.421728
2005-10-24 07:30:51 51°14.35 2°42.573 -999 4.290926 34.572307 -1.421728
2005-10-24 07:30:57 51°14.352 2°42.54 -999 4.290926 34.571581 -1.388018
2005-10-24 07:31:02 51°14.355 2°42.512 -999 4.290926 34.571581 -1.388018
2005-10-24 07:31:07 51°14.357 2°42.484 -999 4.290615 34.56805 -1.388018
2005-10-24 07:31:12 51°14.359 2°42.456 -999 4.291237 34.571479 -1.421728
2005-10-24 07:31:17 51°14.361 2°42.428 -999 4.291341 34.570235 -1.388018
2005-10-24 07:31:22 51°14.363 2°42.4 -999 4.291444 34.568264 -1.388018
2005-10-24 07:31:27 51°14.365 2°42.372 -999 4.291548 34.56702 -1.388018
2005-10-24 07:31:32 51°14.367 2°42.344 -999 4.291548 34.56702 -1.388018
2005-10-24 07:31:37 51°14.37 2°42.316 -999 4.291859 34.566193 -1.388018
2005-10-24 07:31:42 51°14.372 2°42.288 -999 4.292066 34.56661 -1.388018
2005-10-24 07:31:47 51°14.374 2°42.261 -999 4.292274 34.566301 -1.421728
2005-10-24 07:31:51 51°14.376 2°42.239 -999 4.292274 34.564849 -1.388018
2005-10-24 07:31:57 51°14.379 2°42.205 -999 4.292481 34.56454 -1.388018
2005-10-24 07:32:02 51°14.381 2°42.177 -999 4.292481 34.56454 -1.388018
2005-10-24 07:32:07 51°14.383 2°42.15 -999 4.292792 34.565165 -1.421728
2005-10-24 07:32:12 51°14.385 2°42.122 -999 4.293 34.566307 -1.388018
2005-10-24 07:32:17 51°14.388 2°42.094 -999 4.293104 34.566516 -1.388018
2005-10-24 07:32:22 51°14.39 2°42.066 -999 4.292896 34.563196 -1.388018
2005-10-24 07:32:27 51°14.392 2°42.039 -999 4.293311 34.565481 -1.388018
2005-10-24 07:32:32 51°14.394 2°42.011 -999 4.293311 34.565481 -1.388018
2005-10-24 07:32:37 51°14.396 2°41.983 -999 4.293311 34.565481 -1.388018
2005-10-24 07:32:42 51°14.399 2°41.955 -999 4.293518 34.566624 -1.388018
2005-10-24 07:32:47 51°14.4 2°41.927 -999 4.293622 34.567558 -1.421728
2005-10-24 07:32:52 51°14.403 2°41.9 -999 4.293415 34.564964 -1.388018
2005-10-24 07:32:57 51°14.405 2°41.872 -999 4.293726 34.56704 -1.388018
2005-10-24 07:33:02 51°14.407 2°41.844 -999 4.293726 34.56704 -1.388018
2005-10-24 07:33:07 51°14.409 2°41.817 -999 4.293829 34.567249 -1.388018
2005-10-24 07:33:12 51°14.412 2°41.789 -999 4.293933 34.567457 -1.421728
2005-10-24 07:33:17 51°14.413 2°41.761 -999 4.294037 34.568391 -1.388018
2005-10-24 07:33:22 51°14.416 2°41.733 -999 4.293829 34.565797 -1.388018
2005-10-24 07:33:27 51°14.418 2°41.705 -999 4.294037 34.568391 -1.388018
2005-10-24 07:33:32 51°14.421 2°41.678 -999 4.294037 34.568391 -1.388018
2005-10-24 07:33:37 51°14.423 2°41.65 -999 4.294141 34.569325 -1.388018
2005-10-24 07:33:42 51°14.425 2°41.622 -999 4.294141 34.570777 -1.388018
2005-10-24 07:33:47 51°14.427 2°41.594 -999 4.294244 34.572437 -1.421728
2005-10-24 07:33:52 51°14.43 2°41.567 -999 4.294244 34.571711 -1.421728
2005-10-24 07:33:57 51°14.432 2°41.539 -999 4.293622 34.566832 -1.388018
2005-10-24 07:34:02 51°14.434 2°41.511 -999 4.293622 34.566832 -1.388018
2005-10-24 07:34:07 51°14.437 2°41.483 -999 4.294244 34.571711 -1.388018
2005-10-24 07:34:11 51°14.438 2°41.461 -999 4.294141 34.571502 -1.388018
2005-10-24 07:34:17 51°14.442 2°41.428 -999 4.294348 34.574097 -1.388018
2005-10-24 07:34:22 51°14.444 2°41.4 -999 4.294556 34.575965 -1.388018
2005-10-24 07:34:27 51°14.446 2°41.372 -999 4.294556 34.575965 -1.421728
2005-10-24 07:34:32 51°14.449 2°41.345 -999 4.294556 34.575965 -1.421728
2005-10-24 07:34:37 51°14.451 2°41.317 -999 4.294556 34.575239 -1.388018
2005-10-24 07:34:42 51°14.454 2°41.289 -999 4.294659 34.574721 -1.421728
2005-10-24 07:34:47 51°14.456 2°41.261 -999 4.29497 34.577524 -1.421728
2005-10-24 07:34:52 51°14.458 2°41.233 -999 4.295178 34.579392 -1.421728
2005-10-24 07:34:57 51°14.461 2°41.205 -999 4.295282 34.578874 -1.388018
2005-10-24 07:35:02 51°14.463 2°41.177 -999 4.295282 34.578874 -1.388018
2005-10-24 07:35:07 51°14.466 2°41.149 -999 4.295593 34.581676 -1.388018
2005-10-24 07:35:12 51°14.467 2°41.121 -999 4.2958 34.582818 -1.421728
2005-10-24 07:35:17 51°14.469 2°41.093 -999 4.296008 34.583235 -1.388018
2005-10-24 07:35:22 51°14.471 2°41.065 -999 4.296215 34.584377 -1.421728
2005-10-24 07:35:27 51°14.473 2°41.037 -999 4.296734 34.587595 -1.421728
2005-10-24 07:35:32 51°14.476 2°41.009 -999 4.296734 34.587595 -1.421728
2005-10-24 07:35:37 51°14.478 2°40.981 -999 4.296941 34.588011 -1.388018
2005-10-24 07:35:42 51°14.48 2°40.953 -999 4.29746 34.591955 -1.388018
2005-10-24 07:35:47 51°14.482 2°40.925 -999 4.297875 34.594239 -1.421728
2005-10-24 07:35:52 51°14.482 2°40.896 -999 4.298289 34.596522 -1.421728
2005-10-24 07:35:57 51°14.484 2°40.868 -999 4.298601 34.597146 -1.421728
2005-10-24 07:36:02 51°14.485 2°40.84 -999 4.298601 34.597146 -1.421728
2005-10-24 07:36:07 51°14.488 2°40.812 -999 4.299223 34.601297 -1.421728
2005-10-24 07:36:12 51°14.49 2°40.784 -999 4.29943 34.602439 -1.388018
2005-10-24 07:36:17 51°14.493 2°40.757 -999 4.299845 34.604722 -1.388018
2005-10-24 07:36:22 51°14.496 2°40.728 -999 4.300156 34.606797 -1.388018
2005-10-24 07:36:27 51°14.501 2°40.701 -999 4.300571 34.609807 -1.388018
2005-10-24 07:36:32 51°14.505 2°40.673 -999 4.300571 34.609807 -1.388018
2005-10-24 07:36:37 51°14.509 2°40.645 -999 4.300779 34.610948 -1.388018
2005-10-24 07:36:42 51°14.513 2°40.618 -999 4.300882 34.61043 -1.421728
2005-10-24 07:36:47 51°14.517 2°40.59 -999 4.30109 34.611571 -1.388018
2005-10-24 07:36:52 51°14.522 2°40.563 -999 4.301194 34.611779 -1.421728
2005-10-24 07:36:57 51°14.526 2°40.535 -999 4.301297 34.612712 -1.421728
2005-10-24 07:37:02 51°14.531 2°40.508 -999 4.301297 34.612712 -1.421728
2005-10-24 07:37:07 51°14.535 2°40.48 -999 4.301505 34.615306 -1.388018
2005-10-24 07:37:12 51°14.54 2°40.453 -999 4.301505 34.616032 -1.421728
2005-10-24 07:37:17 51°14.544 2°40.425 -999 4.301505 34.616759 -1.421728
2005-10-24 07:37:22 51°14.549 2°40.398 -999 4.301401 34.616551 -1.388018
2005-10-24 07:37:27 51°14.554 2°40.371 -999 4.301505 34.62039 -1.388018
2005-10-24 07:37:32 51°14.558 2°40.343 -999 4.301505 34.62039 -1.388018
2005-10-24 07:37:37 51°14.563 2°40.316 -999 4.301505 34.62257 -1.388018
2005-10-24 07:37:42 51°14.568 2°40.289 -999 4.301401 34.625269 -1.421728
2005-10-24 07:37:47 51°14.572 2°40.261 -999 4.301194 34.62558 -1.388018
2005-10-24 07:37:52 51°14.577 2°40.233 -999 4.300986 34.625892 -1.388018
2005-10-24 07:37:57 51°14.581 2°40.206 -999 4.300883 34.627139 -1.421728
2005-10-24 07:38:02 51°14.586 2°40.179 -999 4.300883 34.627139 -1.421728
2005-10-24 07:38:07 51°14.59 2°40.151 -999 4.300779 34.629112 -1.421728
2005-10-24 07:38:12 51°14.595 2°40.123 -999 4.300572 34.630152 -1.388018
2005-10-24 07:38:17 51°14.599 2°40.096 -999 4.300468 34.630671 -1.421728
2005-10-24 07:38:22 51°14.603 2°40.069 -999 4.300261 34.630257 -1.421728
2005-10-24 07:38:27 51°14.608 2°40.042 -999 4.300261 34.631711 -1.421728
2005-10-24 07:38:32 51°14.612 2°40.013 -999 4.300261 34.631711 -1.421728
2005-10-24 07:38:37 51°14.617 2°39.986 -999 4.300157 34.630777 -1.421728
2005-10-24 07:38:42 51°14.621 2°39.958 -999 4.300157 34.631504 -1.421728
2005-10-24 07:38:47 51°14.626 2°39.932 -999 4.300261 34.632438 -1.421728
2005-10-24 07:38:52 51°14.63 2°39.903 -999 4.300468 34.635762 -1.388018
2005-10-24 07:38:57 51°14.634 2°39.876 -999 4.300572 34.636697 -1.421728
2005-10-24 07:39:02 51°14.639 2°39.849 -999 4.300572 34.636697 -1.421728
2005-10-24 07:39:07 51°14.643 2°39.821 -999 4.300675 34.637631 -1.388018
2005-10-24 07:39:12 51°14.648 2°39.793 -999 4.300779 34.639293 -1.388018
2005-10-24 07:39:17 51°14.652 2°39.766 -999 4.300883 34.640228 -1.421728
2005-10-24 07:39:22 51°14.657 2°39.738 -999 4.300987 34.640435 -1.421728
2005-10-24 07:39:27 51°14.661 2°39.711 -999 4.30109 34.640642 -1.421728
2005-10-24 07:39:32 51°14.665 2°39.683 -999 4.30109 34.640642 -1.421728
2005-10-24 07:39:37 51°14.669 2°39.655 -999 4.301298 34.641784 -1.421728
2005-10-24 07:39:42 51°14.673 2°39.628 -999 4.301402 34.641991 -1.421728
2005-10-24 07:39:47 51°14.678 2°39.6 -999 4.301505 34.642925 -1.421728
2005-10-24 07:39:52 51°14.682 2°39.572 -999 4.301713 34.644067 -1.388018
2005-10-24 07:39:57 51°14.686 2°39.545 -999 4.301816 34.645001 -1.421728
2005-10-24 07:40:02 51°14.69 2°39.517 -999 4.301816 34.645001 -1.421728
2005-10-24 07:40:07 51°14.695 2°39.49 -999 4.30192 34.645936 -1.421728
2005-10-24 07:40:12 51°14.699 2°39.462 -999 4.302024 34.646143 -1.421728
2005-10-24 07:40:17 51°14.703 2°39.435 -999 4.302128 34.64635 -1.388018
2005-10-24 07:40:22 51°14.707 2°39.407 -999 4.302231 34.64583 -1.388018
2005-10-24 07:40:27 51°14.712 2°39.379 -999 4.302542 34.646451 -1.421728
2005-10-24 07:40:32 51°14.716 2°39.352 -999 4.302542 34.646451 -1.421728
2005-10-24 07:40:37 51°14.72 2°39.324 -999 4.302957 34.648733 -1.421728
2005-10-24 07:40:42 51°14.724 2°39.296 -999 4.303268 34.6479 -1.421728
2005-10-24 07:40:47 51°14.729 2°39.269 -999 4.303683 34.646546 -1.421728
2005-10-24 07:40:52 51°14.733 2°39.242 -999 4.304306 34.645607 -1.421728
2005-10-24 07:40:57 51°14.738 2°39.214 -999 4.305135 34.64363 -1.388018
2005-10-24 07:41:02 51°14.742 2°39.187 -999 4.305135 34.64363 -1.388018
2005-10-24 07:41:07 51°14.747 2°39.159 -999 4.306172 34.641342 -1.421728
2005-10-24 07:41:12 51°14.751 2°39.132 -999 4.307313 34.638538 -1.421728
2005-10-24 07:41:17 51°14.756 2°39.104 -999 4.308661 34.636152 -1.421728
2005-10-24 07:41:22 51°14.76 2°39.077 -999 4.309802 34.631904 -1.421728
2005-10-24 07:41:27 51°14.765 2°39.05 -999 4.310839 34.629628 -1.421728
2005-10-24 07:41:32 51°14.769 2°39.022 -999 4.310839 34.629628 -1.421728
2005-10-24 07:41:37 51°14.774 2°38.994 -999 4.312084 34.62777 -1.421728
2005-10-24 07:41:42 51°14.778 2°38.967 -999 4.313328 34.62519 -1.388018
2005-10-24 07:41:47 51°14.782 2°38.939 -999 4.314469 34.624577 -1.421728
2005-10-24 07:41:51 51°14.785 2°38.917 -999 4.31561 34.622519 -1.421728
2005-10-24 07:41:57 51°14.791 2°38.884 -999 4.316647 34.622425 -1.421728
2005-10-24 07:42:02 51°14.795 2°38.857 -999 4.316647 34.622425 -1.421728
2005-10-24 07:42:07 51°14.8 2°38.829 -999 4.317684 34.622332 -1.421728
2005-10-24 07:42:12 51°14.804 2°38.802 -999 4.318618 34.622032 -1.421728
2005-10-24 07:42:17 51°14.809 2°38.775 -999 4.319344 34.619872 -1.421728
2005-10-24 07:42:22 51°14.813 2°38.748 -999 4.319966 34.618229 -1.421728
2005-10-24 07:42:27 51°14.818 2°38.721 -999 4.320381 34.616171 -1.421728
2005-10-24 07:42:32 51°14.822 2°38.693 -999 4.320381 34.616171 -1.421728
2005-10-24 07:42:37 51°14.827 2°38.666 -999 4.321314 34.616597 -1.421728
2005-10-24 07:42:42 51°14.831 2°38.639 -999 4.32204 34.61733 -1.421728
2005-10-24 07:42:47 51°14.835 2°38.611 -999 4.322559 34.616203 -1.421728
2005-10-24 07:42:52 51°14.84 2°38.584 -999 4.323181 34.616728 -1.421728
2005-10-24 07:42:57 51°14.844 2°38.558 -999 4.321521 34.596091 -1.421728
2005-10-24 07:43:02 51°14.849 2°38.53 -999 4.321521 34.596091 -1.421728
2005-10-24 07:43:07 51°14.853 2°38.503 -999 4.323596 34.610346 -1.421728
2005-10-24 07:43:12 51°14.858 2°38.475 -999 4.324426 34.612731 -1.421728
2005-10-24 07:43:17 51°14.862 2°38.448 -999 4.324529 34.60645 -1.421728
2005-10-24 07:43:22 51°14.866 2°38.421 -999 4.325566 34.609971 -1.388018
2005-10-24 07:43:27 51°14.871 2°38.394 -999 4.325981 34.609362 -1.421728
2005-10-24 07:43:32 51°14.875 2°38.366 -999 4.325981 34.609362 -1.421728
2005-10-24 07:43:37 51°14.88 2°38.339 -999 4.326292 34.607104 -1.388018
2005-10-24 07:43:42 51°14.884 2°38.312 -999 4.3265 34.605359 -1.421728
2005-10-24 07:43:47 51°14.888 2°38.284 -999 4.327122 34.606607 -1.421728
2005-10-24 07:43:52 51°14.892 2°38.257 -999 4.327537 34.605999 -1.388018
2005-10-24 07:43:57 51°14.897 2°38.23 -999 4.327641 34.604046 -1.388018
2005-10-24 07:44:02 51°14.901 2°38.202 -999 4.327641 34.604046 -1.388018
2005-10-24 07:44:07 51°14.905 2°38.174 -999 4.328159 34.605087 -1.421728
2005-10-24 07:44:12 51°14.909 2°38.147 -999 4.328367 34.604063 -1.421728
2005-10-24 07:44:17 51°14.914 2°38.12 -999 4.32847 34.602832 -1.421728
2005-10-24 07:44:22 51°14.918 2°38.093 -999 4.328782 34.603456 -1.421728
2005-10-24 07:44:27 51°14.922 2°38.065 -999 4.329093 34.60408 -1.421728
2005-10-24 07:44:31 51°14.926 2°38.043 -999 4.329093 34.60408 -1.421728
2005-10-24 07:44:37 51°14.931 2°38.01 -999 4.329508 34.605632 -1.421728
2005-10-24 07:44:42 51°14.936 2°37.984 -999 4.329611 34.604401 -1.421728
2005-10-24 07:44:47 51°14.94 2°37.956 -999 4.329819 34.604817 -1.421728
2005-10-24 07:44:52 51°14.945 2°37.929 -999 4.33013 34.605441 -1.421728
2005-10-24 07:44:57 51°14.949 2°37.902 -999 4.330337 34.605857 -1.421728
2005-10-24 07:45:02 51°14.953 2°37.875 -999 4.330337 34.605857 -1.421728
2005-10-24 07:45:07 51°14.957 2°37.848 -999 4.330441 34.604626 -1.421728
2005-10-24 07:45:12 51°14.962 2°37.821 -999 4.330752 34.60597 -1.421728
2005-10-24 07:45:17 51°14.966 2°37.794 -999 4.330856 34.605459 -1.421728
2005-10-24 07:45:22 51°14.97 2°37.766 -999 4.33096 34.604947 -1.421728
2005-10-24 07:45:27 51°14.975 2°37.739 -999 4.331271 34.605572 -1.421728
2005-10-24 07:45:32 51°14.979 2°37.712 -999 4.331271 34.605572 -1.421728
2005-10-24 07:45:37 51°14.983 2°37.685 -999 4.331478 34.605988 -1.388018
2005-10-24 07:45:42 51°14.988 2°37.658 -999 4.331582 34.605477 -1.421728
2005-10-24 07:45:47 51°14.992 2°37.631 -999 4.331686 34.605685 -1.421728
2005-10-24 07:45:52 51°14.996 2°37.603 -999 4.331997 34.607028 -1.421728
2005-10-24 07:45:57 51°15.001 2°37.576 -999 4.332101 34.606517 -1.421728
2005-10-24 07:46:02 51°15.005 2°37.549 -999 4.332101 34.606517 -1.421728
2005-10-24 07:46:07 51°15.01 2°37.522 -999 4.332308 34.606933 -1.421728
2005-10-24 07:46:11 51°15.013 2°37.5 -999 4.332412 34.607141 -1.421728
2005-10-24 07:46:17 51°15.018 2°37.468 -999 4.332515 34.607349 -1.421728
2005-10-24 07:46:22 51°15.023 2°37.441 -999 4.332515 34.60663 -1.421728
2005-10-24 07:46:27 51°15.028 2°37.413 -999 4.332619 34.606838 -1.421728
2005-10-24 07:46:32 51°15.032 2°37.386 -999 4.332619 34.606838 -1.421728
2005-10-24 07:46:37 51°15.036 2°37.359 -999 4.332723 34.607046 -1.388018
2005-10-24 07:46:42 51°15.04 2°37.332 -999 4.332723 34.605608 -1.421728
2005-10-24 07:46:47 51°15.045 2°37.305 -999 4.332723 34.604889 -1.388018
2005-10-24 07:46:52 51°15.049 2°37.277 -999 4.33293 34.605306 -1.388018
2005-10-24 07:46:57 51°15.054 2°37.249 -999 4.333034 34.606233 -1.388018
2005-10-24 07:47:02 51°15.058 2°37.223 -999 4.333034 34.606233 -1.388018
2005-10-24 07:47:07 51°15.063 2°37.195 -999 4.333138 34.606441 -1.421728
2005-10-24 07:47:12 51°15.068 2°37.168 -999 4.333138 34.606441 -1.421728
2005-10-24 07:47:17 51°15.072 2°37.141 -999 4.333241 34.607368 -1.421728
2005-10-24 07:47:22 51°15.077 2°37.114 -999 4.333345 34.607576 -1.421728
2005-10-24 07:47:27 51°15.081 2°37.086 -999 4.333345 34.606857 -1.421728
2005-10-24 07:47:32 51°15.086 2°37.059 -999 4.333345 34.606857 -1.421728
2005-10-24 07:47:37 51°15.09 2°37.032 -999 4.333345 34.606138 -1.421728
2005-10-24 07:47:42 51°15.095 2°37.004 -999 4.333345 34.606138 -1.421728
2005-10-24 07:47:47 51°15.099 2°36.977 -999 4.333449 34.606346 -1.421728
2005-10-24 07:47:52 51°15.103 2°36.95 -999 4.333449 34.606346 -1.421728
2005-10-24 07:47:57 51°15.108 2°36.922 -999 4.333553 34.607273 -1.421728
2005-10-24 07:48:02 51°15.112 2°36.895 -999 4.333553 34.607273 -1.421728
2005-10-24 07:48:07 51°15.116 2°36.867 -999 4.333553 34.606554 -1.421728
2005-10-24 07:48:11 51°15.12 2°36.846 -999 4.333553 34.605116 -1.421728
2005-10-24 07:48:17 51°15.125 2°36.812 -999 4.33376 34.606251 -1.388018
2005-10-24 07:48:22 51°15.13 2°36.785 -999 4.333967 34.606668 -1.421728
2005-10-24 07:48:27 51°15.134 2°36.758 -999 4.334175 34.607802 -1.421728
2005-10-24 07:48:32 51°15.139 2°36.73 -999 4.334175 34.607802 -1.421728
2005-10-24 07:48:37 51°15.143 2°36.703 -999 4.334279 34.607292 -1.421728
2005-10-24 07:48:42 51°15.148 2°36.676 -999 4.334382 34.606063 -1.421728
2005-10-24 07:48:47 51°15.152 2°36.648 -999 4.33459 34.60576 -1.421728
2005-10-24 07:48:52 51°15.157 2°36.621 -999 4.334797 34.606895 -1.421728
2005-10-24 07:48:57 51°15.161 2°36.594 -999 4.335005 34.607311 -1.388018
2005-10-24 07:49:02 51°15.166 2°36.567 -999 4.335005 34.607311 -1.388018
2005-10-24 07:49:07 51°15.171 2°36.539 -999 4.335212 34.608446 -1.421728
2005-10-24 07:49:12 51°15.175 2°36.512 -999 4.33542 34.608143 -1.421728
2005-10-24 07:49:17 51°15.179 2°36.485 -999 4.335627 34.607841 -1.421728
2005-10-24 07:49:22 51°15.184 2°36.457 -999 4.336042 34.608673 -1.421728
2005-10-24 07:49:27 51°15.188 2°36.43 -999 4.336353 34.608579 -1.421728
2005-10-24 07:49:32 51°15.193 2°36.403 -999 4.336353 34.608579 -1.421728
2005-10-24 07:49:37 51°15.198 2°36.375 -999 4.336872 34.610338 -1.421728
2005-10-24 07:49:42 51°15.202 2°36.348 -999 4.337183 34.610962 -1.421728
2005-10-24 07:49:47 51°15.207 2°36.321 -999 4.337598 34.611794 -1.421728
2005-10-24 07:49:52 51°15.213 2°36.294 -999 4.338116 34.61427 -1.421728
2005-10-24 07:49:57 51°15.219 2°36.267 -999 4.338428 34.614176 -1.421728
2005-10-24 07:50:02 51°15.225 2°36.24 -999 4.338428 34.614176 -1.421728
2005-10-24 07:50:07 51°15.23 2°36.213 -999 4.338842 34.615008 -1.421728
2005-10-24 07:50:11 51°15.235 2°36.192 -999 4.339154 34.614196 -1.421728
2005-10-24 07:50:17 51°15.243 2°36.159 -999 4.339568 34.615746 -1.421728
2005-10-24 07:50:22 51°15.249 2°36.133 -999 4.33988 34.61637 -1.421728
2005-10-24 07:50:27 51°15.255 2°36.107 -999 4.340087 34.616786 -1.421728
2005-10-24 07:50:32 51°15.262 2°36.081 -999 4.340087 34.616786 -1.421728
2005-10-24 07:50:37 51°15.269 2°36.054 -999 4.340191 34.616993 -1.421728
2005-10-24 07:50:42 51°15.276 2°36.029 -999 4.340295 34.617919 -1.421728
2005-10-24 07:50:47 51°15.284 2°36.003 -999 4.340087 34.617503 -1.421728
2005-10-24 07:50:52 51°15.291 2°35.977 -999 4.340087 34.618939 -1.421728
2005-10-24 07:50:57 51°15.299 2°35.951 -999 4.33988 34.617805 -1.421728
2005-10-24 07:51:02 51°15.306 2°35.925 -999 4.33988 34.617805 -1.421728
2005-10-24 07:51:07 51°15.314 2°35.899 -999 4.339776 34.617598 -1.421728
2005-10-24 07:51:12 51°15.321 2°35.873 -999 4.339776 34.617598 -1.421728
2005-10-24 07:51:17 51°15.329 2°35.847 -999 4.33988 34.617805 -1.421728
2005-10-24 07:51:22 51°15.336 2°35.821 -999 4.340087 34.618221 -1.421728
2005-10-24 07:51:27 51°15.344 2°35.795 -999 4.340398 34.618845 -1.421728
2005-10-24 07:51:32 51°15.351 2°35.769 -999 4.340398 34.618845 -1.421728
2005-10-24 07:51:37 51°15.359 2°35.743 -999 4.340813 34.618959 -1.421728
2005-10-24 07:51:42 51°15.366 2°35.717 -999 4.341332 34.619999 -1.388018
2005-10-24 07:51:47 51°15.373 2°35.691 -999 4.341954 34.619811 -1.421728
2005-10-24 07:51:52 51°15.381 2°35.665 -999 4.342888 34.623117 -1.421728
2005-10-24 07:51:57 51°15.389 2°35.64 -999 4.343614 34.623854 -1.421728
2005-10-24 07:52:02 51°15.397 2°35.614 -999 4.343614 34.623854 -1.421728
2005-10-24 07:52:07 51°15.406 2°35.589 -999 4.34434 34.626027 -1.421728
2005-10-24 07:52:12 51°15.415 2°35.564 -999 4.34517 34.627689 -1.421728
2005-10-24 07:52:17 51°15.424 2°35.539 -999 4.345792 34.628936 -1.421728
2005-10-24 07:52:22 51°15.433 2°35.514 -999 4.346414 34.628749 -1.421728
2005-10-24 07:52:27 51°15.442 2°35.49 -999 4.34714 34.629486 -1.421728
2005-10-24 07:52:32 51°15.451 2°35.465 -999 4.34714 34.629486 -1.421728
2005-10-24 07:52:37 51°15.46 2°35.441 -999 4.347659 34.629808 -1.421728
2005-10-24 07:52:42 51°15.469 2°35.416 -999 4.348281 34.629622 -1.421728
2005-10-24 07:52:47 51°15.477 2°35.391 -999 4.349111 34.631284 -1.421728
2005-10-24 07:52:52 51°15.486 2°35.366 -999 4.349837 34.632739 -1.421728
2005-10-24 07:52:57 51°15.495 2°35.341 -999 4.350771 34.635325 -1.421728
2005-10-24 07:53:02 51°15.504 2°35.316 -999 4.350771 34.635325 -1.421728
2005-10-24 07:53:07 51°15.512 2°35.291 -999 4.351497 34.636063 -1.421728
2005-10-24 07:53:12 51°15.522 2°35.267 -999 4.352223 34.637517 -1.421728
2005-10-24 07:53:17 51°15.53 2°35.242 -999 4.352741 34.637123 -1.421728
2005-10-24 07:53:22 51°15.539 2°35.217 -999 4.353156 34.637238 -1.421728
2005-10-24 07:53:27 51°15.548 2°35.192 -999 4.353571 34.636637 -1.421728
2005-10-24 07:53:32 51°15.557 2°35.167 -999 4.353571 34.636637 -1.421728
2005-10-24 07:53:37 51°15.565 2°35.142 -999 4.353986 34.636752 -1.421728
2005-10-24 07:53:42 51°15.574 2°35.117 -999 4.354505 34.637075 -1.421728
2005-10-24 07:53:47 51°15.583 2°35.092 -999 4.35492 34.63719 -1.388018
2005-10-24 07:53:51 51°15.59 2°35.072 -999 4.355335 34.638737 -1.421728
2005-10-24 07:53:57 51°15.6 2°35.042 -999 4.355646 34.638644 -1.421728
2005-10-24 07:54:02 51°15.609 2°35.017 -999 4.355646 34.638644 -1.421728
2005-10-24 07:54:07 51°15.617 2°34.992 -999 4.355957 34.639268 -1.421728
2005-10-24 07:54:12 51°15.626 2°34.967 -999 4.356372 34.641529 -1.421728
2005-10-24 07:54:17 51°15.634 2°34.941 -999 4.356579 34.641945 -1.421728
2005-10-24 07:54:22 51°15.643 2°34.917 -999 4.356683 34.642152 -1.421728
2005-10-24 07:54:27 51°15.651 2°34.892 -999 4.356787 34.643075 -1.421728
2005-10-24 07:54:32 51°15.66 2°34.867 -999 4.356787 34.643075 -1.421728
2005-10-24 07:54:37 51°15.669 2°34.842 -999 4.356891 34.644714 -1.421728
2005-10-24 07:54:42 51°15.678 2°34.816 -999 4.35409 34.621936 -1.421728
2005-10-24 07:54:47 51°15.686 2°34.792 -999 4.352534 34.609519 -1.421728
2005-10-24 07:54:52 51°15.695 2°34.766 -999 4.355023 34.63382 -1.421728
2005-10-24 07:54:57 51°15.703 2°34.741 -999 4.354401 34.630427 -1.421728
2005-10-24 07:55:02 51°15.711 2°34.716 -999 4.354401 34.630427 -1.421728
2005-10-24 07:55:07 51°15.72 2°34.691 -999 4.354816 34.636982 -1.421728
2005-10-24 07:55:12 51°15.729 2°34.665 -999 4.352223 34.616761 -1.421728
2005-10-24 07:55:17 51°15.738 2°34.64 -999 4.351704 34.612859 -1.421728
2005-10-24 07:55:22 51°15.746 2°34.615 -999 4.353052 34.625578 -1.421728
2005-10-24 07:55:27 51°15.755 2°34.59 -999 4.354194 34.635736 -1.421728
2005-10-24 07:55:31 51°15.761 2°34.57 -999 4.354194 34.635736 -1.421728
2005-10-24 07:55:37 51°15.771 2°34.539 -999 4.354194 34.63502 -1.421728
2005-10-24 07:55:42 51°15.78 2°34.514 -999 4.35492 34.640769 -1.421728
2005-10-24 07:55:47 51°15.787 2°34.489 -999 4.354194 34.633589 -1.421728
2005-10-24 07:55:52 51°15.796 2°34.464 -999 4.354608 34.636567 -1.421728
2005-10-24 07:55:57 51°15.804 2°34.438 -999 4.352949 34.621078 -1.421728
2005-10-24 07:56:02 51°15.813 2°34.413 -999 4.352949 34.621078 -1.421728
2005-10-24 07:56:07 51°15.822 2°34.389 -999 4.355335 34.640884 -1.421728
2005-10-24 07:56:12 51°15.831 2°34.364 -999 4.352741 34.617801 -1.421728
2005-10-24 07:56:17 51°15.84 2°34.339 -999 4.351496 34.606722 -1.421728
2005-10-24 07:56:22 51°15.85 2°34.315 -999 4.35243 34.615031 -1.421728
2005-10-24 07:56:27 51°15.859 2°34.29 -999 4.353986 34.628165 -1.421728
2005-10-24 07:56:32 51°15.868 2°34.266 -999 4.353986 34.628165 -1.421728
2005-10-24 07:56:37 51°15.877 2°34.241 -999 4.355542 34.639868 -1.421728
2005-10-24 07:56:42 51°15.886 2°34.216 -999 4.355231 34.635667 -1.421728
2005-10-24 07:56:47 51°15.895 2°34.192 -999 4.356372 34.64296 -1.421728
2005-10-24 07:56:52 51°15.906 2°34.168 -999 4.356891 34.64543 -1.421728
2005-10-24 07:56:57 51°15.916 2°34.145 -999 4.357928 34.651083 -1.421728
2005-10-24 07:57:02 51°15.926 2°34.121 -999 4.357928 34.651083 -1.421728
2005-10-24 07:57:07 51°15.937 2°34.098 -999 4.358032 34.647713 -1.421728
2005-10-24 07:57:11 51°15.945 2°34.079 -999 4.359691 34.657472 -1.421728
2005-10-24 07:57:17 51°15.958 2°34.052 -999 4.357098 34.628681 -1.421728
2005-10-24 07:57:22 51°15.969 2°34.028 -999 4.360314 34.652279 -1.421728
2005-10-24 07:57:27 51°15.979 2°34.006 -999 4.361766 34.659475 -1.421728
2005-10-24 07:57:31 51°15.987 2°33.987 -999 4.361766 34.659475 -1.421728
2005-10-24 07:57:37 51°16.001 2°33.959 -999 4.362077 34.656522 -1.421728
2005-10-24 07:57:42 51°16.011 2°33.935 -999 4.362907 34.658181 -1.421728
2005-10-24 07:57:47 51°16.023 2°33.914 -999 4.362595 34.649697 -1.421728
2005-10-24 07:57:52 51°16.032 2°33.89 -999 4.364152 34.657812 -1.421728
2005-10-24 07:57:57 51°16.044 2°33.868 -999 4.364774 34.657628 -1.421728
2005-10-24 07:58:02 51°16.053 2°33.844 -999 4.364774 34.657628 -1.421728
2005-10-24 07:58:07 51°16.065 2°33.822 -999 4.365604 34.660716 -1.421728
2005-10-24 07:58:12 51°16.075 2°33.799 -999 4.36716 34.670257 -1.421728
2005-10-24 07:58:17 51°16.087 2°33.777 -999 4.365189 34.649174 -1.421728
2005-10-24 07:58:22 51°16.097 2°33.753 -999 4.368197 34.671615 -1.421728
2005-10-24 07:58:27 51°16.109 2°33.731 -999 4.368093 34.667836 -1.421728
2005-10-24 07:58:32 51°16.12 2°33.709 -999 4.368093 34.667836 -1.421728
2005-10-24 07:58:37 51°16.131 2°33.687 -999 4.367782 34.66293 -1.421728
2005-10-24 07:58:42 51°16.143 2°33.665 -999 4.367989 34.663345 -1.421728
2005-10-24 07:58:47 51°16.154 2°33.642 -999 4.369753 34.676866 -1.421728
2005-10-24 07:58:52 51°16.166 2°33.621 -999 4.365707 34.640221 -1.421728
2005-10-24 07:58:57 51°16.176 2°33.598 -999 4.367574 34.65609 -1.421728
2005-10-24 07:59:02 51°16.189 2°33.576 -999 4.367574 34.65609 -1.421728
2005-10-24 07:59:07 51°16.2 2°33.553 -999 4.36996 34.676566 -1.421728
2005-10-24 07:59:12 51°16.212 2°33.531 -999 4.369857 34.674931 -1.421728
2005-10-24 07:59:17 51°16.222 2°33.508 -999 4.367782 34.655078 -1.421728
2005-10-24 07:59:22 51°16.234 2°33.486 -999 4.368301 34.65897 -1.421728
2005-10-24 07:59:27 51°16.245 2°33.463 -999 4.369857 34.672789 -1.421728
2005-10-24 07:59:32 51°16.256 2°33.439 -999 4.369857 34.672789 -1.421728
2005-10-24 07:59:37 51°16.268 2°33.416 -999 4.369131 34.66634 -1.421728
2005-10-24 07:59:42 51°16.279 2°33.394 -999 4.368508 34.660812 -1.421728
2005-10-24 07:59:47 51°16.29 2°33.372 -999 4.367056 34.647916 -1.421728
2005-10-24 07:59:52 51°16.302 2°33.349 -999 4.367678 34.653443 -1.421728
2005-10-24 07:59:57 51°16.315 2°33.329 -999 4.368301 34.658256 -1.421728
2005-10-24 08:00:02 51°16.327 2°33.307 -999 4.368301 34.658256 -1.421728
2005-10-24 08:00:07 51°16.34 2°33.286 -999 4.368923 34.66307 -1.421728
2005-10-24 08:00:12 51°16.353 2°33.264 -999 4.369338 34.667468 -1.421728
2005-10-24 08:00:17 51°16.366 2°33.243 -999 4.366848 34.64536 -1.421728
2005-10-24 08:00:22 51°16.379 2°33.221 -999 4.366537 34.642597 -1.421728
2005-10-24 08:00:27 51°16.391 2°33.2 -999 4.370064 34.673917 -1.421728
2005-10-24 08:00:32 51°16.404 2°33.179 -999 4.370064 34.673917 -1.421728
2005-10-24 08:00:37 51°16.416 2°33.157 -999 4.369442 34.66839 -1.421728
2005-10-24 08:00:42 51°16.43 2°33.137 -999 4.369545 34.669311 -1.421728
2005-10-24 08:00:47 51°16.442 2°33.116 -999 4.369753 34.671867 -1.421728
2005-10-24 08:00:52 51°16.456 2°33.096 -999 4.367678 34.654156 -1.421728
2005-10-24 08:00:57 51°16.468 2°33.074 -999 4.369234 34.667261 -1.421728
2005-10-24 08:01:02 51°16.481 2°33.054 -999 4.369234 34.667261 -1.421728
2005-10-24 08:01:07 51°16.493 2°33.033 -999 4.369131 34.66634 -1.421728
2005-10-24 08:01:12 51°16.506 2°33.014 -999 4.368301 34.65897 -1.421728
2005-10-24 08:01:17 51°16.519 2°32.993 -999 4.367782 34.65365 -1.421728
2005-10-24 08:01:22 51°16.533 2°32.973 -999 4.365603 34.63502 -1.421728
2005-10-24 08:01:27 51°16.545 2°32.951 -999 4.368301 34.65897 -1.421728
2005-10-24 08:01:32 51°16.558 2°32.932 -999 4.368301 34.65897 -1.421728
2005-10-24 08:01:37 51°16.571 2°32.912 -999 4.367471 34.6516 -1.421728
2005-10-24 08:01:42 51°16.583 2°32.89 -999 4.366537 34.642597 -1.421728
2005-10-24 08:01:47 51°16.596 2°32.871 -999 4.367159 34.646696 -1.421728
2005-10-24 08:01:52 51°16.608 2°32.85 -999 4.366952 34.644141 -1.421728
2005-10-24 08:01:57 51°16.622 2°32.831 -999 4.367782 34.650083 -1.421728
2005-10-24 08:02:02 51°16.634 2°32.811 -999 4.367782 34.650083 -1.421728
2005-10-24 08:02:07 51°16.648 2°32.79 -999 4.368404 34.654182 -1.421728
2005-10-24 08:02:12 51°16.66 2°32.769 -999 4.368819 34.655726 -1.421728
2005-10-24 08:02:17 51°16.673 2°32.748 -999 4.367989 34.645505 -1.421728
2005-10-24 08:02:22 51°16.685 2°32.728 -999 4.369545 34.657179 -1.421728
2005-10-24 08:02:27 51°16.698 2°32.708 -999 4.369753 34.65688 -1.421728
2005-10-24 08:02:32 51°16.711 2°32.688 -999 4.369753 34.65688 -1.421728
2005-10-24 08:02:37 51°16.724 2°32.668 -999 4.370894 34.66487 -1.421728
2005-10-24 08:02:42 51°16.737 2°32.648 -999 4.371101 34.664571 -1.421728
2005-10-24 08:02:47 51°16.751 2°32.629 -999 4.368819 34.642889 -1.421728
2005-10-24 08:02:52 51°16.763 2°32.608 -999 4.368508 34.638701 -1.421728
2005-10-24 08:02:57 51°16.777 2°32.588 -999 4.369545 34.646482 -1.421728
2005-10-24 08:03:02 51°16.789 2°32.568 -999 4.369545 34.646482 -1.421728
2005-10-24 08:03:07 51°16.802 2°32.547 -999 4.371309 34.660706 -1.421728
2005-10-24 08:03:13 51°16.818 2°32.523 -999 4.370375 34.650282 -1.421728
2005-10-24 08:03:17 51°16.828 2°32.507 -999 4.36996 34.645174 -1.421728
2005-10-24 08:03:22 51°16.841 2°32.486 -999 4.371309 34.656428 -1.421728
2005-10-24 08:03:27 51°16.854 2°32.466 -999 4.369545 34.640067 -1.421728
2005-10-24 08:03:32 51°16.866 2°32.445 -999 4.369545 34.640067 -1.421728
2005-10-24 08:03:37 51°16.879 2°32.426 -999 4.367989 34.624836 -1.421728
2005-10-24 08:03:42 51°16.892 2°32.405 -999 4.369856 34.639978 -1.421728
2005-10-24 08:03:47 51°16.905 2°32.386 -999 4.368922 34.630982 -1.421728
2005-10-24 08:03:52 51°16.917 2°32.365 -999 4.370167 34.641314 -1.421728
2005-10-24 08:03:57 51°16.931 2°32.346 -999 4.369649 34.635287 -1.421728
2005-10-24 08:04:02 51°16.944 2°32.325 -999 4.369649 34.635287 -1.421728
2005-10-24 08:04:07 51°16.956 2°32.305 -999 4.371516 34.650428 -1.421728
2005-10-24 08:04:11 51°16.966 2°32.289 -999 4.371516 34.649003 -1.421728
2005-10-24 08:04:17 51°16.981 2°32.264 -999 4.370686 34.640216 -1.388018
2005-10-24 08:04:22 51°16.994 2°32.245 -999 4.372138 34.652387 -1.388018
2005-10-24 08:04:27 51°17.007 2°32.224 -999 4.371412 34.645232 -1.421728
2005-10-24 08:04:31 51°17.018 2°32.208 -999 4.371412 34.645232 -1.421728
2005-10-24 08:04:37 51°17.033 2°32.183 -999 4.369545 34.627245 -1.421728
2005-10-24 08:04:42 51°17.046 2°32.162 -999 4.370686 34.636654 -1.421728
2005-10-24 08:04:47 51°17.058 2°32.142 -999 4.372035 34.647191 -1.421728
2005-10-24 08:04:51 51°17.068 2°32.125 -999 4.373487 34.659361 -1.421728
2005-10-24 08:04:57 51°17.084 2°32.1 -999 4.372242 34.647607 -1.421728
2005-10-24 08:05:02 51°17.096 2°32.079 -999 4.372242 34.647607 -1.421728
2005-10-24 08:05:07 51°17.109 2°32.059 -999 4.370582 34.632174 -1.421728
2005-10-24 08:05:12 51°17.122 2°32.038 -999 4.373279 34.655383 -1.421728
2005-10-24 08:05:17 51°17.135 2°32.018 -999 4.372657 34.648438 -1.421728
2005-10-24 08:05:22 51°17.148 2°31.998 -999 4.370375 34.626774 -1.421728